<?xml version="1.0" encoding="UTF-8" standalone="no" ?>
<gpx xmlns="http://www.topografix.com/GPX/1/1" xmlns:xsi="http://www.w3.org/2001/XMLSchema-instance" xsi:schemaLocation="http://www.topografix.com/GPX/1/1 http://www.topografix.com/GPX/1/1/gpx.xsd" version="1.1" creator="VisuGPX - https://www.visugpx.com">
  <metadata>
    <name>randonnée no 24</name>
    <desc><![CDATA[pas mal mais vaut mieux partir de remilly pour les repères]]></desc>
  </metadata>
  <trk>
    <name><![CDATA[Tracé actuel: 23 SEPT 2020 12:55]]></name>
    <trkseg>
      <trkpt lat="49.63461" lon="4.98056">
        <ele>191.92</ele>
        <time>2020-09-23T10:55:46Z</time>
      </trkpt>
      <trkpt lat="49.63461" lon="4.98058">
        <ele>190.96</ele>
        <time>2020-09-23T10:56:10Z</time>
      </trkpt>
      <trkpt lat="49.63457" lon="4.98037">
        <ele>190.96</ele>
        <time>2020-09-23T10:56:49Z</time>
      </trkpt>
      <trkpt lat="49.63442" lon="4.98044">
        <ele>197.21</ele>
        <time>2020-09-23T10:56:59Z</time>
      </trkpt>
      <trkpt lat="49.63444" lon="4.98051">
        <ele>196.25</ele>
        <time>2020-09-23T10:57:03Z</time>
      </trkpt>
      <trkpt lat="49.63456" lon="4.98067">
        <ele>189.52</ele>
        <time>2020-09-23T10:57:16Z</time>
      </trkpt>
      <trkpt lat="49.63467" lon="4.98083">
        <ele>182.79</ele>
        <time>2020-09-23T10:57:27Z</time>
      </trkpt>
      <trkpt lat="49.63474" lon="4.98097">
        <ele>179.9</ele>
        <time>2020-09-23T10:57:40Z</time>
      </trkpt>
      <trkpt lat="49.63481" lon="4.98111">
        <ele>180.87</ele>
        <time>2020-09-23T10:57:51Z</time>
      </trkpt>
      <trkpt lat="49.63486" lon="4.98119">
        <ele>181.83</ele>
        <time>2020-09-23T10:58:01Z</time>
      </trkpt>
      <trkpt lat="49.63489" lon="4.98125">
        <ele>182.31</ele>
        <time>2020-09-23T10:58:05Z</time>
      </trkpt>
      <trkpt lat="49.63492" lon="4.98135">
        <ele>183.27</ele>
        <time>2020-09-23T10:58:17Z</time>
      </trkpt>
      <trkpt lat="49.63487" lon="4.9815">
        <ele>185.19</ele>
        <time>2020-09-23T10:58:29Z</time>
      </trkpt>
      <trkpt lat="49.63479" lon="4.98163">
        <ele>186.63</ele>
        <time>2020-09-23T10:58:41Z</time>
      </trkpt>
      <trkpt lat="49.63474" lon="4.98177">
        <ele>188.08</ele>
        <time>2020-09-23T10:58:52Z</time>
      </trkpt>
      <trkpt lat="49.63471" lon="4.98191">
        <ele>191.44</ele>
        <time>2020-09-23T10:59:04Z</time>
      </trkpt>
      <trkpt lat="49.63467" lon="4.98204">
        <ele>192.4</ele>
        <time>2020-09-23T10:59:15Z</time>
      </trkpt>
      <trkpt lat="49.63462" lon="4.9822">
        <ele>193.36</ele>
        <time>2020-09-23T10:59:26Z</time>
      </trkpt>
      <trkpt lat="49.63458" lon="4.98228">
        <ele>193.84</ele>
        <time>2020-09-23T10:59:34Z</time>
      </trkpt>
      <trkpt lat="49.63449" lon="4.98236">
        <ele>193.36</ele>
        <time>2020-09-23T10:59:46Z</time>
      </trkpt>
      <trkpt lat="49.63442" lon="4.9825">
        <ele>191.92</ele>
        <time>2020-09-23T10:59:58Z</time>
      </trkpt>
      <trkpt lat="49.63439" lon="4.98256">
        <ele>190.48</ele>
        <time>2020-09-23T11:00:10Z</time>
      </trkpt>
      <trkpt lat="49.6343" lon="4.98264">
        <ele>190.96</ele>
        <time>2020-09-23T11:00:20Z</time>
      </trkpt>
      <trkpt lat="49.63424" lon="4.98272">
        <ele>192.88</ele>
        <time>2020-09-23T11:00:28Z</time>
      </trkpt>
      <trkpt lat="49.63421" lon="4.98277">
        <ele>193.84</ele>
        <time>2020-09-23T11:00:32Z</time>
      </trkpt>
      <trkpt lat="49.63414" lon="4.98286">
        <ele>195.77</ele>
        <time>2020-09-23T11:00:42Z</time>
      </trkpt>
      <trkpt lat="49.63406" lon="4.98296">
        <ele>197.69</ele>
        <time>2020-09-23T11:00:52Z</time>
      </trkpt>
      <trkpt lat="49.63401" lon="4.98302">
        <ele>198.65</ele>
        <time>2020-09-23T11:00:58Z</time>
      </trkpt>
      <trkpt lat="49.63391" lon="4.98312">
        <ele>200.09</ele>
        <time>2020-09-23T11:01:10Z</time>
      </trkpt>
      <trkpt lat="49.63382" lon="4.98321">
        <ele>201.05</ele>
        <time>2020-09-23T11:01:21Z</time>
      </trkpt>
      <trkpt lat="49.63372" lon="4.98326">
        <ele>201.53</ele>
        <time>2020-09-23T11:01:32Z</time>
      </trkpt>
      <trkpt lat="49.63367" lon="4.98329">
        <ele>203.46</ele>
        <time>2020-09-23T11:01:37Z</time>
      </trkpt>
      <trkpt lat="49.6336" lon="4.98335">
        <ele>205.86</ele>
        <time>2020-09-23T11:01:48Z</time>
      </trkpt>
      <trkpt lat="49.63351" lon="4.98338">
        <ele>207.3</ele>
        <time>2020-09-23T11:01:58Z</time>
      </trkpt>
      <trkpt lat="49.63343" lon="4.98343">
        <ele>209.22</ele>
        <time>2020-09-23T11:02:06Z</time>
      </trkpt>
      <trkpt lat="49.63339" lon="4.98343">
        <ele>210.19</ele>
        <time>2020-09-23T11:02:09Z</time>
      </trkpt>
      <trkpt lat="49.63328" lon="4.98341">
        <ele>214.51</ele>
        <time>2020-09-23T11:02:20Z</time>
      </trkpt>
      <trkpt lat="49.63324" lon="4.9834">
        <ele>215.47</ele>
        <time>2020-09-23T11:02:27Z</time>
      </trkpt>
      <trkpt lat="49.6331" lon="4.98341">
        <ele>215.95</ele>
        <time>2020-09-23T11:02:42Z</time>
      </trkpt>
      <trkpt lat="49.63301" lon="4.98341">
        <ele>215.47</ele>
        <time>2020-09-23T11:02:52Z</time>
      </trkpt>
      <trkpt lat="49.63286" lon="4.9834">
        <ele>216.43</ele>
        <time>2020-09-23T11:03:06Z</time>
      </trkpt>
      <trkpt lat="49.6328" lon="4.98341">
        <ele>217.88</ele>
        <time>2020-09-23T11:03:12Z</time>
      </trkpt>
      <trkpt lat="49.63277" lon="4.98343">
        <ele>218.36</ele>
        <time>2020-09-23T11:03:16Z</time>
      </trkpt>
      <trkpt lat="49.6327" lon="4.98355">
        <ele>218.84</ele>
        <time>2020-09-23T11:03:27Z</time>
      </trkpt>
      <trkpt lat="49.6326" lon="4.98361">
        <ele>222.2</ele>
        <time>2020-09-23T11:03:40Z</time>
      </trkpt>
      <trkpt lat="49.63252" lon="4.98373">
        <ele>225.09</ele>
        <time>2020-09-23T11:03:54Z</time>
      </trkpt>
      <trkpt lat="49.63241" lon="4.98385">
        <ele>226.05</ele>
        <time>2020-09-23T11:04:08Z</time>
      </trkpt>
      <trkpt lat="49.63232" lon="4.98391">
        <ele>227.01</ele>
        <time>2020-09-23T11:04:21Z</time>
      </trkpt>
      <trkpt lat="49.63224" lon="4.984">
        <ele>227.49</ele>
        <time>2020-09-23T11:04:33Z</time>
      </trkpt>
      <trkpt lat="49.63215" lon="4.98404">
        <ele>229.41</ele>
        <time>2020-09-23T11:04:47Z</time>
      </trkpt>
      <trkpt lat="49.63211" lon="4.98405">
        <ele>231.81</ele>
        <time>2020-09-23T11:05:00Z</time>
      </trkpt>
      <trkpt lat="49.63209" lon="4.98406">
        <ele>233.74</ele>
        <time>2020-09-23T11:05:13Z</time>
      </trkpt>
      <trkpt lat="49.63209" lon="4.98408">
        <ele>235.18</ele>
        <time>2020-09-23T11:05:40Z</time>
      </trkpt>
      <trkpt lat="49.63208" lon="4.98408">
        <ele>235.66</ele>
        <time>2020-09-23T11:05:52Z</time>
      </trkpt>
      <trkpt lat="49.63201" lon="4.9841">
        <ele>239.02</ele>
        <time>2020-09-23T11:06:07Z</time>
      </trkpt>
      <trkpt lat="49.63187" lon="4.98414">
        <ele>242.39</ele>
        <time>2020-09-23T11:06:19Z</time>
      </trkpt>
      <trkpt lat="49.63184" lon="4.98414">
        <ele>243.35</ele>
        <time>2020-09-23T11:06:22Z</time>
      </trkpt>
      <trkpt lat="49.63164" lon="4.98414">
        <ele>244.79</ele>
        <time>2020-09-23T11:06:37Z</time>
      </trkpt>
      <trkpt lat="49.6315" lon="4.98421">
        <ele>246.23</ele>
        <time>2020-09-23T11:06:52Z</time>
      </trkpt>
      <trkpt lat="49.63136" lon="4.98427">
        <ele>247.68</ele>
        <time>2020-09-23T11:07:06Z</time>
      </trkpt>
      <trkpt lat="49.6312" lon="4.98426">
        <ele>248.64</ele>
        <time>2020-09-23T11:07:20Z</time>
      </trkpt>
      <trkpt lat="49.63108" lon="4.98434">
        <ele>250.08</ele>
        <time>2020-09-23T11:07:35Z</time>
      </trkpt>
      <trkpt lat="49.63096" lon="4.98433">
        <ele>252.48</ele>
        <time>2020-09-23T11:07:47Z</time>
      </trkpt>
      <trkpt lat="49.63083" lon="4.98435">
        <ele>256.81</ele>
        <time>2020-09-23T11:07:59Z</time>
      </trkpt>
      <trkpt lat="49.63077" lon="4.98436">
        <ele>258.25</ele>
        <time>2020-09-23T11:08:05Z</time>
      </trkpt>
      <trkpt lat="49.63066" lon="4.98439">
        <ele>260.17</ele>
        <time>2020-09-23T11:08:15Z</time>
      </trkpt>
      <trkpt lat="49.63057" lon="4.98446">
        <ele>261.62</ele>
        <time>2020-09-23T11:08:28Z</time>
      </trkpt>
      <trkpt lat="49.63051" lon="4.98451">
        <ele>262.58</ele>
        <time>2020-09-23T11:08:36Z</time>
      </trkpt>
      <trkpt lat="49.63047" lon="4.98461">
        <ele>262.58</ele>
        <time>2020-09-23T11:08:53Z</time>
      </trkpt>
      <trkpt lat="49.63038" lon="4.9847">
        <ele>263.06</ele>
        <time>2020-09-23T11:09:06Z</time>
      </trkpt>
      <trkpt lat="49.6303" lon="4.98478">
        <ele>265.46</ele>
        <time>2020-09-23T11:09:17Z</time>
      </trkpt>
      <trkpt lat="49.63029" lon="4.98481">
        <ele>266.42</ele>
        <time>2020-09-23T11:09:31Z</time>
      </trkpt>
      <trkpt lat="49.63026" lon="4.98492">
        <ele>266.9</ele>
        <time>2020-09-23T11:09:47Z</time>
      </trkpt>
      <trkpt lat="49.6302" lon="4.98521">
        <ele>272.19</ele>
        <time>2020-09-23T11:10:05Z</time>
      </trkpt>
      <trkpt lat="49.63017" lon="4.98535">
        <ele>274.11</ele>
        <time>2020-09-23T11:10:17Z</time>
      </trkpt>
      <trkpt lat="49.63016" lon="4.98536">
        <ele>273.63</ele>
        <time>2020-09-23T11:10:19Z</time>
      </trkpt>
      <trkpt lat="49.63015" lon="4.98551">
        <ele>276.04</ele>
        <time>2020-09-23T11:10:29Z</time>
      </trkpt>
      <trkpt lat="49.63015" lon="4.9858">
        <ele>277.96</ele>
        <time>2020-09-23T11:10:44Z</time>
      </trkpt>
      <trkpt lat="49.63011" lon="4.98592">
        <ele>277</ele>
        <time>2020-09-23T11:10:50Z</time>
      </trkpt>
      <trkpt lat="49.63012" lon="4.98628">
        <ele>277</ele>
        <time>2020-09-23T11:11:06Z</time>
      </trkpt>
      <trkpt lat="49.63013" lon="4.98634">
        <ele>277.96</ele>
        <time>2020-09-23T11:11:10Z</time>
      </trkpt>
      <trkpt lat="49.63019" lon="4.98653">
        <ele>280.36</ele>
        <time>2020-09-23T11:11:23Z</time>
      </trkpt>
      <trkpt lat="49.63023" lon="4.98669">
        <ele>282.28</ele>
        <time>2020-09-23T11:11:36Z</time>
      </trkpt>
      <trkpt lat="49.6303" lon="4.98684">
        <ele>279.88</ele>
        <time>2020-09-23T11:11:48Z</time>
      </trkpt>
      <trkpt lat="49.63039" lon="4.987">
        <ele>277.48</ele>
        <time>2020-09-23T11:11:58Z</time>
      </trkpt>
      <trkpt lat="49.63052" lon="4.98722">
        <ele>275.07</ele>
        <time>2020-09-23T11:12:12Z</time>
      </trkpt>
      <trkpt lat="49.63058" lon="4.98738">
        <ele>275.56</ele>
        <time>2020-09-23T11:12:27Z</time>
      </trkpt>
      <trkpt lat="49.63064" lon="4.98751">
        <ele>278.44</ele>
        <time>2020-09-23T11:12:42Z</time>
      </trkpt>
      <trkpt lat="49.63069" lon="4.98755">
        <ele>280.84</ele>
        <time>2020-09-23T11:12:57Z</time>
      </trkpt>
      <trkpt lat="49.63072" lon="4.98754">
        <ele>282.28</ele>
        <time>2020-09-23T11:13:04Z</time>
      </trkpt>
      <trkpt lat="49.63081" lon="4.98749">
        <ele>284.69</ele>
        <time>2020-09-23T11:13:17Z</time>
      </trkpt>
      <trkpt lat="49.63086" lon="4.98743">
        <ele>286.61</ele>
        <time>2020-09-23T11:13:23Z</time>
      </trkpt>
      <trkpt lat="49.63091" lon="4.98738">
        <ele>287.57</ele>
        <time>2020-09-23T11:13:28Z</time>
      </trkpt>
      <trkpt lat="49.63106" lon="4.98732">
        <ele>289.97</ele>
        <time>2020-09-23T11:13:41Z</time>
      </trkpt>
      <trkpt lat="49.63115" lon="4.98729">
        <ele>290.46</ele>
        <time>2020-09-23T11:13:54Z</time>
      </trkpt>
      <trkpt lat="49.63106" lon="4.98727">
        <ele>288.05</ele>
        <time>2020-09-23T11:14:09Z</time>
      </trkpt>
      <trkpt lat="49.63099" lon="4.9873">
        <ele>288.53</ele>
        <time>2020-09-23T11:14:25Z</time>
      </trkpt>
      <trkpt lat="49.63087" lon="4.98741">
        <ele>287.57</ele>
        <time>2020-09-23T11:14:43Z</time>
      </trkpt>
      <trkpt lat="49.63082" lon="4.98744">
        <ele>287.09</ele>
        <time>2020-09-23T11:14:59Z</time>
      </trkpt>
      <trkpt lat="49.63075" lon="4.98752">
        <ele>289.49</ele>
        <time>2020-09-23T11:15:15Z</time>
      </trkpt>
      <trkpt lat="49.63058" lon="4.98767">
        <ele>290.94</ele>
        <time>2020-09-23T11:15:28Z</time>
      </trkpt>
      <trkpt lat="49.63041" lon="4.98781">
        <ele>290.46</ele>
        <time>2020-09-23T11:15:42Z</time>
      </trkpt>
      <trkpt lat="49.63022" lon="4.98795">
        <ele>290.46</ele>
        <time>2020-09-23T11:16:01Z</time>
      </trkpt>
      <trkpt lat="49.63007" lon="4.98805">
        <ele>290.46</ele>
        <time>2020-09-23T11:16:15Z</time>
      </trkpt>
      <trkpt lat="49.62994" lon="4.98813">
        <ele>293.34</ele>
        <time>2020-09-23T11:16:29Z</time>
      </trkpt>
      <trkpt lat="49.62979" lon="4.98827">
        <ele>295.74</ele>
        <time>2020-09-23T11:16:48Z</time>
      </trkpt>
      <trkpt lat="49.62965" lon="4.98841">
        <ele>295.26</ele>
        <time>2020-09-23T11:17:03Z</time>
      </trkpt>
      <trkpt lat="49.62963" lon="4.98843">
        <ele>295.74</ele>
        <time>2020-09-23T11:17:05Z</time>
      </trkpt>
      <trkpt lat="49.62951" lon="4.98854">
        <ele>297.18</ele>
        <time>2020-09-23T11:17:21Z</time>
      </trkpt>
      <trkpt lat="49.6295" lon="4.98863">
        <ele>299.11</ele>
        <time>2020-09-23T11:17:35Z</time>
      </trkpt>
      <trkpt lat="49.62955" lon="4.98885">
        <ele>298.15</ele>
        <time>2020-09-23T11:17:50Z</time>
      </trkpt>
      <trkpt lat="49.62965" lon="4.98908">
        <ele>300.07</ele>
        <time>2020-09-23T11:18:04Z</time>
      </trkpt>
      <trkpt lat="49.62975" lon="4.9892">
        <ele>300.55</ele>
        <time>2020-09-23T11:18:15Z</time>
      </trkpt>
      <trkpt lat="49.62983" lon="4.98929">
        <ele>300.55</ele>
        <time>2020-09-23T11:18:29Z</time>
      </trkpt>
      <trkpt lat="49.6299" lon="4.98936">
        <ele>301.03</ele>
        <time>2020-09-23T11:18:42Z</time>
      </trkpt>
      <trkpt lat="49.62996" lon="4.98946">
        <ele>302.47</ele>
        <time>2020-09-23T11:18:50Z</time>
      </trkpt>
      <trkpt lat="49.6301" lon="4.98969">
        <ele>304.88</ele>
        <time>2020-09-23T11:19:04Z</time>
      </trkpt>
      <trkpt lat="49.63021" lon="4.98982">
        <ele>305.84</ele>
        <time>2020-09-23T11:19:17Z</time>
      </trkpt>
      <trkpt lat="49.63024" lon="4.98987">
        <ele>306.32</ele>
        <time>2020-09-23T11:19:21Z</time>
      </trkpt>
      <trkpt lat="49.63034" lon="4.99004">
        <ele>304.88</ele>
        <time>2020-09-23T11:19:35Z</time>
      </trkpt>
      <trkpt lat="49.63047" lon="4.99024">
        <ele>302.95</ele>
        <time>2020-09-23T11:19:51Z</time>
      </trkpt>
      <trkpt lat="49.63052" lon="4.99032">
        <ele>303.43</ele>
        <time>2020-09-23T11:19:56Z</time>
      </trkpt>
      <trkpt lat="49.63064" lon="4.99047">
        <ele>302.95</ele>
        <time>2020-09-23T11:20:12Z</time>
      </trkpt>
      <trkpt lat="49.63074" lon="4.99061">
        <ele>304.88</ele>
        <time>2020-09-23T11:20:26Z</time>
      </trkpt>
      <trkpt lat="49.63084" lon="4.99073">
        <ele>307.28</ele>
        <time>2020-09-23T11:20:41Z</time>
      </trkpt>
      <trkpt lat="49.63094" lon="4.99079">
        <ele>307.28</ele>
        <time>2020-09-23T11:20:53Z</time>
      </trkpt>
      <trkpt lat="49.63098" lon="4.99083">
        <ele>306.32</ele>
        <time>2020-09-23T11:20:59Z</time>
      </trkpt>
      <trkpt lat="49.63105" lon="4.9907">
        <ele>303.43</ele>
        <time>2020-09-23T11:21:13Z</time>
      </trkpt>
      <trkpt lat="49.63112" lon="4.99061">
        <ele>302.95</ele>
        <time>2020-09-23T11:21:25Z</time>
      </trkpt>
      <trkpt lat="49.63118" lon="4.99054">
        <ele>303.43</ele>
        <time>2020-09-23T11:21:36Z</time>
      </trkpt>
      <trkpt lat="49.63118" lon="4.99053">
        <ele>303.43</ele>
        <time>2020-09-23T11:21:37Z</time>
      </trkpt>
      <trkpt lat="49.63121" lon="4.99047">
        <ele>303.43</ele>
        <time>2020-09-23T11:21:42Z</time>
      </trkpt>
      <trkpt lat="49.63124" lon="4.99042">
        <ele>302.95</ele>
        <time>2020-09-23T11:21:47Z</time>
      </trkpt>
      <trkpt lat="49.63129" lon="4.99035">
        <ele>301.03</ele>
        <time>2020-09-23T11:21:59Z</time>
      </trkpt>
      <trkpt lat="49.63136" lon="4.99024">
        <ele>301.03</ele>
        <time>2020-09-23T11:22:10Z</time>
      </trkpt>
      <trkpt lat="49.6314" lon="4.99017">
        <ele>300.07</ele>
        <time>2020-09-23T11:22:17Z</time>
      </trkpt>
      <trkpt lat="49.63145" lon="4.99004">
        <ele>298.15</ele>
        <time>2020-09-23T11:22:30Z</time>
      </trkpt>
      <trkpt lat="49.63148" lon="4.98998">
        <ele>297.67</ele>
        <time>2020-09-23T11:22:40Z</time>
      </trkpt>
      <trkpt lat="49.63156" lon="4.98991">
        <ele>298.63</ele>
        <time>2020-09-23T11:22:49Z</time>
      </trkpt>
      <trkpt lat="49.63163" lon="4.98981">
        <ele>301.03</ele>
        <time>2020-09-23T11:23:01Z</time>
      </trkpt>
      <trkpt lat="49.63168" lon="4.98974">
        <ele>301.99</ele>
        <time>2020-09-23T11:23:11Z</time>
      </trkpt>
      <trkpt lat="49.63172" lon="4.98965">
        <ele>300.07</ele>
        <time>2020-09-23T11:23:19Z</time>
      </trkpt>
      <trkpt lat="49.63182" lon="4.98951">
        <ele>296.7</ele>
        <time>2020-09-23T11:23:31Z</time>
      </trkpt>
      <trkpt lat="49.63191" lon="4.98931">
        <ele>293.82</ele>
        <time>2020-09-23T11:23:45Z</time>
      </trkpt>
      <trkpt lat="49.63192" lon="4.98929">
        <ele>293.82</ele>
        <time>2020-09-23T11:23:49Z</time>
      </trkpt>
      <trkpt lat="49.63197" lon="4.9892">
        <ele>296.22</ele>
        <time>2020-09-23T11:24:01Z</time>
      </trkpt>
      <trkpt lat="49.63201" lon="4.98915">
        <ele>297.18</ele>
        <time>2020-09-23T11:24:08Z</time>
      </trkpt>
      <trkpt lat="49.63209" lon="4.98899">
        <ele>297.18</ele>
        <time>2020-09-23T11:24:20Z</time>
      </trkpt>
      <trkpt lat="49.63214" lon="4.98889">
        <ele>297.18</ele>
        <time>2020-09-23T11:24:33Z</time>
      </trkpt>
      <trkpt lat="49.63222" lon="4.98881">
        <ele>297.18</ele>
        <time>2020-09-23T11:24:43Z</time>
      </trkpt>
      <trkpt lat="49.63227" lon="4.98871">
        <ele>295.74</ele>
        <time>2020-09-23T11:24:52Z</time>
      </trkpt>
      <trkpt lat="49.63234" lon="4.98855">
        <ele>294.3</ele>
        <time>2020-09-23T11:25:04Z</time>
      </trkpt>
      <trkpt lat="49.63237" lon="4.9885">
        <ele>292.86</ele>
        <time>2020-09-23T11:25:17Z</time>
      </trkpt>
      <trkpt lat="49.63241" lon="4.98846">
        <ele>291.42</ele>
        <time>2020-09-23T11:25:31Z</time>
      </trkpt>
      <trkpt lat="49.63247" lon="4.98836">
        <ele>289.49</ele>
        <time>2020-09-23T11:25:40Z</time>
      </trkpt>
      <trkpt lat="49.63252" lon="4.98826">
        <ele>288.53</ele>
        <time>2020-09-23T11:25:49Z</time>
      </trkpt>
      <trkpt lat="49.63257" lon="4.98815">
        <ele>288.05</ele>
        <time>2020-09-23T11:25:58Z</time>
      </trkpt>
      <trkpt lat="49.6326" lon="4.98809">
        <ele>288.53</ele>
        <time>2020-09-23T11:26:10Z</time>
      </trkpt>
      <trkpt lat="49.63262" lon="4.98805">
        <ele>289.01</ele>
        <time>2020-09-23T11:26:23Z</time>
      </trkpt>
      <trkpt lat="49.63268" lon="4.98798">
        <ele>289.01</ele>
        <time>2020-09-23T11:26:35Z</time>
      </trkpt>
      <trkpt lat="49.63274" lon="4.98787">
        <ele>287.57</ele>
        <time>2020-09-23T11:26:45Z</time>
      </trkpt>
      <trkpt lat="49.63277" lon="4.98783">
        <ele>287.57</ele>
        <time>2020-09-23T11:27:03Z</time>
      </trkpt>
      <trkpt lat="49.63277" lon="4.98782">
        <ele>287.57</ele>
        <time>2020-09-23T11:27:06Z</time>
      </trkpt>
      <trkpt lat="49.63274" lon="4.98779">
        <ele>287.57</ele>
        <time>2020-09-23T11:27:10Z</time>
      </trkpt>
      <trkpt lat="49.63266" lon="4.98766">
        <ele>284.69</ele>
        <time>2020-09-23T11:27:23Z</time>
      </trkpt>
      <trkpt lat="49.63264" lon="4.98764">
        <ele>284.69</ele>
        <time>2020-09-23T11:27:36Z</time>
      </trkpt>
      <trkpt lat="49.63263" lon="4.98763">
        <ele>283.73</ele>
        <time>2020-09-23T11:27:52Z</time>
      </trkpt>
      <trkpt lat="49.63266" lon="4.98765">
        <ele>283.73</ele>
        <time>2020-09-23T11:27:58Z</time>
      </trkpt>
      <trkpt lat="49.63277" lon="4.98775">
        <ele>280.84</ele>
        <time>2020-09-23T11:28:10Z</time>
      </trkpt>
      <trkpt lat="49.63278" lon="4.98775">
        <ele>280.84</ele>
        <time>2020-09-23T11:28:11Z</time>
      </trkpt>
      <trkpt lat="49.63289" lon="4.9879">
        <ele>281.32</ele>
        <time>2020-09-23T11:28:25Z</time>
      </trkpt>
      <trkpt lat="49.63299" lon="4.98805">
        <ele>282.77</ele>
        <time>2020-09-23T11:28:37Z</time>
      </trkpt>
      <trkpt lat="49.63308" lon="4.98821">
        <ele>283.25</ele>
        <time>2020-09-23T11:28:51Z</time>
      </trkpt>
      <trkpt lat="49.63318" lon="4.98837">
        <ele>282.77</ele>
        <time>2020-09-23T11:29:04Z</time>
      </trkpt>
      <trkpt lat="49.63319" lon="4.98838">
        <ele>282.77</ele>
        <time>2020-09-23T11:29:06Z</time>
      </trkpt>
      <trkpt lat="49.63328" lon="4.98858">
        <ele>284.21</ele>
        <time>2020-09-23T11:29:20Z</time>
      </trkpt>
      <trkpt lat="49.63337" lon="4.98878">
        <ele>285.17</ele>
        <time>2020-09-23T11:29:35Z</time>
      </trkpt>
      <trkpt lat="49.63338" lon="4.98879">
        <ele>285.17</ele>
        <time>2020-09-23T11:29:36Z</time>
      </trkpt>
      <trkpt lat="49.63346" lon="4.989">
        <ele>288.53</ele>
        <time>2020-09-23T11:29:52Z</time>
      </trkpt>
      <trkpt lat="49.63348" lon="4.9891">
        <ele>289.97</ele>
        <time>2020-09-23T11:29:57Z</time>
      </trkpt>
      <trkpt lat="49.63351" lon="4.98917">
        <ele>291.9</ele>
        <time>2020-09-23T11:30:08Z</time>
      </trkpt>
      <trkpt lat="49.63359" lon="4.98936">
        <ele>291.9</ele>
        <time>2020-09-23T11:30:21Z</time>
      </trkpt>
      <trkpt lat="49.63367" lon="4.98956">
        <ele>289.97</ele>
        <time>2020-09-23T11:30:34Z</time>
      </trkpt>
      <trkpt lat="49.6337" lon="4.98965">
        <ele>289.49</ele>
        <time>2020-09-23T11:30:40Z</time>
      </trkpt>
      <trkpt lat="49.63371" lon="4.98969">
        <ele>289.49</ele>
        <time>2020-09-23T11:30:42Z</time>
      </trkpt>
      <trkpt lat="49.63377" lon="4.98987">
        <ele>288.05</ele>
        <time>2020-09-23T11:30:57Z</time>
      </trkpt>
      <trkpt lat="49.6339" lon="4.99008">
        <ele>286.13</ele>
        <time>2020-09-23T11:31:13Z</time>
      </trkpt>
      <trkpt lat="49.63401" lon="4.99025">
        <ele>284.69</ele>
        <time>2020-09-23T11:31:31Z</time>
      </trkpt>
      <trkpt lat="49.63409" lon="4.99039">
        <ele>284.69</ele>
        <time>2020-09-23T11:31:45Z</time>
      </trkpt>
      <trkpt lat="49.63416" lon="4.99052">
        <ele>287.57</ele>
        <time>2020-09-23T11:31:54Z</time>
      </trkpt>
      <trkpt lat="49.63428" lon="4.9907">
        <ele>290.46</ele>
        <time>2020-09-23T11:32:09Z</time>
      </trkpt>
      <trkpt lat="49.6344" lon="4.99087">
        <ele>290.94</ele>
        <time>2020-09-23T11:32:25Z</time>
      </trkpt>
      <trkpt lat="49.63453" lon="4.991">
        <ele>288.53</ele>
        <time>2020-09-23T11:32:41Z</time>
      </trkpt>
      <trkpt lat="49.63464" lon="4.99114">
        <ele>289.97</ele>
        <time>2020-09-23T11:32:57Z</time>
      </trkpt>
      <trkpt lat="49.63477" lon="4.99124">
        <ele>292.38</ele>
        <time>2020-09-23T11:33:15Z</time>
      </trkpt>
      <trkpt lat="49.63493" lon="4.99138">
        <ele>295.74</ele>
        <time>2020-09-23T11:33:31Z</time>
      </trkpt>
      <trkpt lat="49.63505" lon="4.99143">
        <ele>300.07</ele>
        <time>2020-09-23T11:33:42Z</time>
      </trkpt>
      <trkpt lat="49.63521" lon="4.99146">
        <ele>301.03</ele>
        <time>2020-09-23T11:33:58Z</time>
      </trkpt>
      <trkpt lat="49.63537" lon="4.9915">
        <ele>301.99</ele>
        <time>2020-09-23T11:34:12Z</time>
      </trkpt>
      <trkpt lat="49.63553" lon="4.99162">
        <ele>304.88</ele>
        <time>2020-09-23T11:34:28Z</time>
      </trkpt>
      <trkpt lat="49.63568" lon="4.99168">
        <ele>305.36</ele>
        <time>2020-09-23T11:34:43Z</time>
      </trkpt>
      <trkpt lat="49.63579" lon="4.99171">
        <ele>302.95</ele>
        <time>2020-09-23T11:34:56Z</time>
      </trkpt>
      <trkpt lat="49.63582" lon="4.99172">
        <ele>302.47</ele>
        <time>2020-09-23T11:34:58Z</time>
      </trkpt>
      <trkpt lat="49.63596" lon="4.99177">
        <ele>301.03</ele>
        <time>2020-09-23T11:35:12Z</time>
      </trkpt>
      <trkpt lat="49.6361" lon="4.99185">
        <ele>298.63</ele>
        <time>2020-09-23T11:35:25Z</time>
      </trkpt>
      <trkpt lat="49.63626" lon="4.99192">
        <ele>300.07</ele>
        <time>2020-09-23T11:35:42Z</time>
      </trkpt>
      <trkpt lat="49.63637" lon="4.99201">
        <ele>304.88</ele>
        <time>2020-09-23T11:35:57Z</time>
      </trkpt>
      <trkpt lat="49.63649" lon="4.99206">
        <ele>305.84</ele>
        <time>2020-09-23T11:36:13Z</time>
      </trkpt>
      <trkpt lat="49.63666" lon="4.99213">
        <ele>304.39</ele>
        <time>2020-09-23T11:36:28Z</time>
      </trkpt>
      <trkpt lat="49.63682" lon="4.99216">
        <ele>300.55</ele>
        <time>2020-09-23T11:36:41Z</time>
      </trkpt>
      <trkpt lat="49.63702" lon="4.99226">
        <ele>296.22</ele>
        <time>2020-09-23T11:36:59Z</time>
      </trkpt>
      <trkpt lat="49.63712" lon="4.99227">
        <ele>294.3</ele>
        <time>2020-09-23T11:37:10Z</time>
      </trkpt>
      <trkpt lat="49.63727" lon="4.99244">
        <ele>291.42</ele>
        <time>2020-09-23T11:37:24Z</time>
      </trkpt>
      <trkpt lat="49.63734" lon="4.99245">
        <ele>288.53</ele>
        <time>2020-09-23T11:37:35Z</time>
      </trkpt>
      <trkpt lat="49.63741" lon="4.99238">
        <ele>285.65</ele>
        <time>2020-09-23T11:37:43Z</time>
      </trkpt>
      <trkpt lat="49.63757" lon="4.99239">
        <ele>279.4</ele>
        <time>2020-09-23T11:37:57Z</time>
      </trkpt>
      <trkpt lat="49.63769" lon="4.99241">
        <ele>275.56</ele>
        <time>2020-09-23T11:38:12Z</time>
      </trkpt>
      <trkpt lat="49.63784" lon="4.99237">
        <ele>273.63</ele>
        <time>2020-09-23T11:38:27Z</time>
      </trkpt>
      <trkpt lat="49.63792" lon="4.99238">
        <ele>274.11</ele>
        <time>2020-09-23T11:38:35Z</time>
      </trkpt>
      <trkpt lat="49.63809" lon="4.99242">
        <ele>274.11</ele>
        <time>2020-09-23T11:38:51Z</time>
      </trkpt>
      <trkpt lat="49.63822" lon="4.99249">
        <ele>264.02</ele>
        <time>2020-09-23T11:39:07Z</time>
      </trkpt>
      <trkpt lat="49.63827" lon="4.99254">
        <ele>258.25</ele>
        <time>2020-09-23T11:39:21Z</time>
      </trkpt>
      <trkpt lat="49.63836" lon="4.99262">
        <ele>255.85</ele>
        <time>2020-09-23T11:39:35Z</time>
      </trkpt>
      <trkpt lat="49.63839" lon="4.99265">
        <ele>255.85</ele>
        <time>2020-09-23T11:39:40Z</time>
      </trkpt>
      <trkpt lat="49.6385" lon="4.99271">
        <ele>253.44</ele>
        <time>2020-09-23T11:39:55Z</time>
      </trkpt>
      <trkpt lat="49.63854" lon="4.99276">
        <ele>252.48</ele>
        <time>2020-09-23T11:40:01Z</time>
      </trkpt>
      <trkpt lat="49.63857" lon="4.99284">
        <ele>252</ele>
        <time>2020-09-23T11:40:05Z</time>
      </trkpt>
      <trkpt lat="49.63866" lon="4.99292">
        <ele>252</ele>
        <time>2020-09-23T11:40:14Z</time>
      </trkpt>
      <trkpt lat="49.63875" lon="4.99305">
        <ele>252.96</ele>
        <time>2020-09-23T11:40:28Z</time>
      </trkpt>
      <trkpt lat="49.63876" lon="4.99308">
        <ele>253.44</ele>
        <time>2020-09-23T11:40:30Z</time>
      </trkpt>
      <trkpt lat="49.63884" lon="4.99312">
        <ele>256.33</ele>
        <time>2020-09-23T11:40:46Z</time>
      </trkpt>
      <trkpt lat="49.63893" lon="4.99318">
        <ele>256.81</ele>
        <time>2020-09-23T11:40:59Z</time>
      </trkpt>
      <trkpt lat="49.63904" lon="4.99323">
        <ele>254.41</ele>
        <time>2020-09-23T11:41:13Z</time>
      </trkpt>
      <trkpt lat="49.63908" lon="4.99329">
        <ele>254.41</ele>
        <time>2020-09-23T11:41:27Z</time>
      </trkpt>
      <trkpt lat="49.63916" lon="4.99336">
        <ele>254.89</ele>
        <time>2020-09-23T11:41:42Z</time>
      </trkpt>
      <trkpt lat="49.63928" lon="4.99345">
        <ele>258.25</ele>
        <time>2020-09-23T11:41:54Z</time>
      </trkpt>
      <trkpt lat="49.63937" lon="4.99352">
        <ele>259.21</ele>
        <time>2020-09-23T11:42:11Z</time>
      </trkpt>
      <trkpt lat="49.63949" lon="4.99369">
        <ele>259.69</ele>
        <time>2020-09-23T11:42:26Z</time>
      </trkpt>
      <trkpt lat="49.63954" lon="4.99377">
        <ele>259.21</ele>
        <time>2020-09-23T11:42:40Z</time>
      </trkpt>
      <trkpt lat="49.63958" lon="4.99379">
        <ele>258.25</ele>
        <time>2020-09-23T11:42:50Z</time>
      </trkpt>
      <trkpt lat="49.63971" lon="4.99386">
        <ele>257.29</ele>
        <time>2020-09-23T11:43:03Z</time>
      </trkpt>
      <trkpt lat="49.63985" lon="4.99399">
        <ele>256.33</ele>
        <time>2020-09-23T11:43:20Z</time>
      </trkpt>
      <trkpt lat="49.64002" lon="4.99415">
        <ele>253.93</ele>
        <time>2020-09-23T11:43:34Z</time>
      </trkpt>
      <trkpt lat="49.6401" lon="4.99426">
        <ele>250.08</ele>
        <time>2020-09-23T11:43:48Z</time>
      </trkpt>
      <trkpt lat="49.64011" lon="4.9943">
        <ele>249.12</ele>
        <time>2020-09-23T11:43:53Z</time>
      </trkpt>
      <trkpt lat="49.64002" lon="4.99445">
        <ele>241.43</ele>
        <time>2020-09-23T11:44:07Z</time>
      </trkpt>
      <trkpt lat="49.63999" lon="4.99458">
        <ele>235.18</ele>
        <time>2020-09-23T11:44:21Z</time>
      </trkpt>
      <trkpt lat="49.63997" lon="4.99457">
        <ele>233.26</ele>
        <time>2020-09-23T11:44:43Z</time>
      </trkpt>
      <trkpt lat="49.63996" lon="4.99456">
        <ele>231.33</ele>
        <time>2020-09-23T11:45:03Z</time>
      </trkpt>
      <trkpt lat="49.63991" lon="4.99455">
        <ele>231.81</ele>
        <time>2020-09-23T11:45:10Z</time>
      </trkpt>
      <trkpt lat="49.63986" lon="4.99455">
        <ele>231.33</ele>
        <time>2020-09-23T11:45:18Z</time>
      </trkpt>
      <trkpt lat="49.6398" lon="4.99452">
        <ele>230.85</ele>
        <time>2020-09-23T11:45:24Z</time>
      </trkpt>
      <trkpt lat="49.63962" lon="4.99456">
        <ele>228.93</ele>
        <time>2020-09-23T11:45:38Z</time>
      </trkpt>
      <trkpt lat="49.6396" lon="4.99456">
        <ele>227.97</ele>
        <time>2020-09-23T11:45:41Z</time>
      </trkpt>
      <trkpt lat="49.63947" lon="4.99456">
        <ele>228.93</ele>
        <time>2020-09-23T11:45:55Z</time>
      </trkpt>
      <trkpt lat="49.6394" lon="4.9946">
        <ele>228.45</ele>
        <time>2020-09-23T11:46:03Z</time>
      </trkpt>
      <trkpt lat="49.63927" lon="4.99466">
        <ele>230.37</ele>
        <time>2020-09-23T11:46:17Z</time>
      </trkpt>
      <trkpt lat="49.63922" lon="4.99468">
        <ele>229.89</ele>
        <time>2020-09-23T11:46:34Z</time>
      </trkpt>
      <trkpt lat="49.63922" lon="4.99467">
        <ele>229.89</ele>
        <time>2020-09-23T11:46:37Z</time>
      </trkpt>
      <trkpt lat="49.63909" lon="4.99474">
        <ele>231.81</ele>
        <time>2020-09-23T11:46:52Z</time>
      </trkpt>
      <trkpt lat="49.63907" lon="4.99474">
        <ele>232.3</ele>
        <time>2020-09-23T11:46:54Z</time>
      </trkpt>
      <trkpt lat="49.63892" lon="4.99479">
        <ele>233.26</ele>
        <time>2020-09-23T11:47:08Z</time>
      </trkpt>
      <trkpt lat="49.63877" lon="4.99485">
        <ele>233.74</ele>
        <time>2020-09-23T11:47:22Z</time>
      </trkpt>
      <trkpt lat="49.63864" lon="4.99494">
        <ele>234.22</ele>
        <time>2020-09-23T11:47:35Z</time>
      </trkpt>
      <trkpt lat="49.63859" lon="4.99495">
        <ele>235.18</ele>
        <time>2020-09-23T11:47:41Z</time>
      </trkpt>
      <trkpt lat="49.63847" lon="4.99501">
        <ele>236.14</ele>
        <time>2020-09-23T11:47:55Z</time>
      </trkpt>
      <trkpt lat="49.63835" lon="4.99511">
        <ele>238.06</ele>
        <time>2020-09-23T11:48:08Z</time>
      </trkpt>
      <trkpt lat="49.6383" lon="4.99513">
        <ele>239.02</ele>
        <time>2020-09-23T11:48:14Z</time>
      </trkpt>
      <trkpt lat="49.63828" lon="4.99514">
        <ele>239.51</ele>
        <time>2020-09-23T11:48:17Z</time>
      </trkpt>
      <trkpt lat="49.63825" lon="4.99515">
        <ele>239.99</ele>
        <time>2020-09-23T11:48:22Z</time>
      </trkpt>
      <trkpt lat="49.63813" lon="4.99514">
        <ele>241.43</ele>
        <time>2020-09-23T11:48:35Z</time>
      </trkpt>
      <trkpt lat="49.63801" lon="4.99519">
        <ele>243.83</ele>
        <time>2020-09-23T11:48:49Z</time>
      </trkpt>
      <trkpt lat="49.63787" lon="4.99523">
        <ele>245.27</ele>
        <time>2020-09-23T11:49:02Z</time>
      </trkpt>
      <trkpt lat="49.63783" lon="4.99525">
        <ele>245.27</ele>
        <time>2020-09-23T11:49:05Z</time>
      </trkpt>
      <trkpt lat="49.63777" lon="4.99524">
        <ele>245.75</ele>
        <time>2020-09-23T11:49:11Z</time>
      </trkpt>
      <trkpt lat="49.63769" lon="4.99523">
        <ele>247.68</ele>
        <time>2020-09-23T11:49:19Z</time>
      </trkpt>
      <trkpt lat="49.63757" lon="4.99517">
        <ele>251.04</ele>
        <time>2020-09-23T11:49:32Z</time>
      </trkpt>
      <trkpt lat="49.63744" lon="4.9951">
        <ele>253.93</ele>
        <time>2020-09-23T11:49:46Z</time>
      </trkpt>
      <trkpt lat="49.63739" lon="4.99508">
        <ele>254.89</ele>
        <time>2020-09-23T11:49:52Z</time>
      </trkpt>
      <trkpt lat="49.63727" lon="4.99499">
        <ele>256.81</ele>
        <time>2020-09-23T11:50:04Z</time>
      </trkpt>
      <trkpt lat="49.63725" lon="4.99498">
        <ele>257.29</ele>
        <time>2020-09-23T11:50:07Z</time>
      </trkpt>
      <trkpt lat="49.63713" lon="4.99488">
        <ele>258.25</ele>
        <time>2020-09-23T11:50:20Z</time>
      </trkpt>
      <trkpt lat="49.63702" lon="4.99482">
        <ele>260.65</ele>
        <time>2020-09-23T11:50:33Z</time>
      </trkpt>
      <trkpt lat="49.63698" lon="4.99481">
        <ele>262.1</ele>
        <time>2020-09-23T11:50:39Z</time>
      </trkpt>
      <trkpt lat="49.63685" lon="4.99475">
        <ele>264.98</ele>
        <time>2020-09-23T11:50:55Z</time>
      </trkpt>
      <trkpt lat="49.63676" lon="4.99471">
        <ele>266.9</ele>
        <time>2020-09-23T11:51:04Z</time>
      </trkpt>
      <trkpt lat="49.63661" lon="4.99465">
        <ele>267.38</ele>
        <time>2020-09-23T11:51:18Z</time>
      </trkpt>
      <trkpt lat="49.63646" lon="4.99457">
        <ele>267.86</ele>
        <time>2020-09-23T11:51:32Z</time>
      </trkpt>
      <trkpt lat="49.63633" lon="4.9945">
        <ele>269.31</ele>
        <time>2020-09-23T11:51:47Z</time>
      </trkpt>
      <trkpt lat="49.63621" lon="4.99443">
        <ele>269.79</ele>
        <time>2020-09-23T11:52:01Z</time>
      </trkpt>
      <trkpt lat="49.63607" lon="4.9944">
        <ele>272.19</ele>
        <time>2020-09-23T11:52:17Z</time>
      </trkpt>
      <trkpt lat="49.6359" lon="4.99437">
        <ele>273.15</ele>
        <time>2020-09-23T11:52:35Z</time>
      </trkpt>
      <trkpt lat="49.63583" lon="4.99434">
        <ele>275.07</ele>
        <time>2020-09-23T11:52:46Z</time>
      </trkpt>
      <trkpt lat="49.63574" lon="4.99434">
        <ele>275.07</ele>
        <time>2020-09-23T11:53:01Z</time>
      </trkpt>
      <trkpt lat="49.63562" lon="4.99433">
        <ele>277</ele>
        <time>2020-09-23T11:53:15Z</time>
      </trkpt>
      <trkpt lat="49.63558" lon="4.99432">
        <ele>277.48</ele>
        <time>2020-09-23T11:53:19Z</time>
      </trkpt>
      <trkpt lat="49.63546" lon="4.99427">
        <ele>280.36</ele>
        <time>2020-09-23T11:53:33Z</time>
      </trkpt>
      <trkpt lat="49.63541" lon="4.9942">
        <ele>281.32</ele>
        <time>2020-09-23T11:53:46Z</time>
      </trkpt>
      <trkpt lat="49.63536" lon="4.99412">
        <ele>281.32</ele>
        <time>2020-09-23T11:53:52Z</time>
      </trkpt>
      <trkpt lat="49.63521" lon="4.99402">
        <ele>282.77</ele>
        <time>2020-09-23T11:54:07Z</time>
      </trkpt>
      <trkpt lat="49.63509" lon="4.99396">
        <ele>282.28</ele>
        <time>2020-09-23T11:54:20Z</time>
      </trkpt>
      <trkpt lat="49.63499" lon="4.99389">
        <ele>283.73</ele>
        <time>2020-09-23T11:54:32Z</time>
      </trkpt>
      <trkpt lat="49.63486" lon="4.99383">
        <ele>285.65</ele>
        <time>2020-09-23T11:54:44Z</time>
      </trkpt>
      <trkpt lat="49.63475" lon="4.99378">
        <ele>286.61</ele>
        <time>2020-09-23T11:54:58Z</time>
      </trkpt>
      <trkpt lat="49.6346" lon="4.99374">
        <ele>286.61</ele>
        <time>2020-09-23T11:55:14Z</time>
      </trkpt>
      <trkpt lat="49.63449" lon="4.99375">
        <ele>286.13</ele>
        <time>2020-09-23T11:55:25Z</time>
      </trkpt>
      <trkpt lat="49.63428" lon="4.99385">
        <ele>284.69</ele>
        <time>2020-09-23T11:55:41Z</time>
      </trkpt>
      <trkpt lat="49.63415" lon="4.99387">
        <ele>284.21</ele>
        <time>2020-09-23T11:55:56Z</time>
      </trkpt>
      <trkpt lat="49.63392" lon="4.99386">
        <ele>286.13</ele>
        <time>2020-09-23T11:56:15Z</time>
      </trkpt>
      <trkpt lat="49.63383" lon="4.99388">
        <ele>283.73</ele>
        <time>2020-09-23T11:56:28Z</time>
      </trkpt>
      <trkpt lat="49.63368" lon="4.99388">
        <ele>286.13</ele>
        <time>2020-09-23T11:56:43Z</time>
      </trkpt>
      <trkpt lat="49.63353" lon="4.99387">
        <ele>284.21</ele>
        <time>2020-09-23T11:56:59Z</time>
      </trkpt>
      <trkpt lat="49.63332" lon="4.99384">
        <ele>283.73</ele>
        <time>2020-09-23T11:57:16Z</time>
      </trkpt>
      <trkpt lat="49.63319" lon="4.99383">
        <ele>282.28</ele>
        <time>2020-09-23T11:57:31Z</time>
      </trkpt>
      <trkpt lat="49.63312" lon="4.99379">
        <ele>281.8</ele>
        <time>2020-09-23T11:57:46Z</time>
      </trkpt>
      <trkpt lat="49.6331" lon="4.99379">
        <ele>281.8</ele>
        <time>2020-09-23T11:58:07Z</time>
      </trkpt>
      <trkpt lat="49.6331" lon="4.99378">
        <ele>282.28</ele>
        <time>2020-09-23T11:58:31Z</time>
      </trkpt>
      <trkpt lat="49.63303" lon="4.99375">
        <ele>280.84</ele>
        <time>2020-09-23T11:58:49Z</time>
      </trkpt>
      <trkpt lat="49.63303" lon="4.99375">
        <ele>280.84</ele>
        <time>2020-09-23T11:59:13Z</time>
      </trkpt>
      <trkpt lat="49.63304" lon="4.99375">
        <ele>280.84</ele>
        <time>2020-09-23T11:59:31Z</time>
      </trkpt>
      <trkpt lat="49.63304" lon="4.99375">
        <ele>281.8</ele>
        <time>2020-09-23T11:59:49Z</time>
      </trkpt>
      <trkpt lat="49.63305" lon="4.99377">
        <ele>282.28</ele>
        <time>2020-09-23T12:00:03Z</time>
      </trkpt>
      <trkpt lat="49.63304" lon="4.99378">
        <ele>282.28</ele>
        <time>2020-09-23T12:00:27Z</time>
      </trkpt>
      <trkpt lat="49.63305" lon="4.99378">
        <ele>282.28</ele>
        <time>2020-09-23T12:00:31Z</time>
      </trkpt>
      <trkpt lat="49.63315" lon="4.99383">
        <ele>279.88</ele>
        <time>2020-09-23T12:00:42Z</time>
      </trkpt>
      <trkpt lat="49.63327" lon="4.99389">
        <ele>282.28</ele>
        <time>2020-09-23T12:00:56Z</time>
      </trkpt>
      <trkpt lat="49.63334" lon="4.99395">
        <ele>283.73</ele>
        <time>2020-09-23T12:01:04Z</time>
      </trkpt>
      <trkpt lat="49.63339" lon="4.99395">
        <ele>284.69</ele>
        <time>2020-09-23T12:01:10Z</time>
      </trkpt>
      <trkpt lat="49.63344" lon="4.99397">
        <ele>285.65</ele>
        <time>2020-09-23T12:01:14Z</time>
      </trkpt>
      <trkpt lat="49.63355" lon="4.99396">
        <ele>287.09</ele>
        <time>2020-09-23T12:01:27Z</time>
      </trkpt>
      <trkpt lat="49.63369" lon="4.99398">
        <ele>291.42</ele>
        <time>2020-09-23T12:01:41Z</time>
      </trkpt>
      <trkpt lat="49.63383" lon="4.99402">
        <ele>291.42</ele>
        <time>2020-09-23T12:01:53Z</time>
      </trkpt>
      <trkpt lat="49.63392" lon="4.99399">
        <ele>293.34</ele>
        <time>2020-09-23T12:02:02Z</time>
      </trkpt>
      <trkpt lat="49.63398" lon="4.99398">
        <ele>295.26</ele>
        <time>2020-09-23T12:02:10Z</time>
      </trkpt>
      <trkpt lat="49.63412" lon="4.99397">
        <ele>296.22</ele>
        <time>2020-09-23T12:02:23Z</time>
      </trkpt>
      <trkpt lat="49.63425" lon="4.99397">
        <ele>295.26</ele>
        <time>2020-09-23T12:02:36Z</time>
      </trkpt>
      <trkpt lat="49.63439" lon="4.99396">
        <ele>296.22</ele>
        <time>2020-09-23T12:02:50Z</time>
      </trkpt>
      <trkpt lat="49.63451" lon="4.99395">
        <ele>296.22</ele>
        <time>2020-09-23T12:03:04Z</time>
      </trkpt>
      <trkpt lat="49.63466" lon="4.994">
        <ele>301.03</ele>
        <time>2020-09-23T12:03:19Z</time>
      </trkpt>
      <trkpt lat="49.6348" lon="4.99406">
        <ele>300.07</ele>
        <time>2020-09-23T12:03:32Z</time>
      </trkpt>
      <trkpt lat="49.6348" lon="4.99407">
        <ele>300.07</ele>
        <time>2020-09-23T12:03:33Z</time>
      </trkpt>
      <trkpt lat="49.63493" lon="4.99413">
        <ele>298.63</ele>
        <time>2020-09-23T12:03:47Z</time>
      </trkpt>
      <trkpt lat="49.63505" lon="4.99422">
        <ele>295.74</ele>
        <time>2020-09-23T12:04:01Z</time>
      </trkpt>
      <trkpt lat="49.63513" lon="4.99428">
        <ele>293.82</ele>
        <time>2020-09-23T12:04:12Z</time>
      </trkpt>
      <trkpt lat="49.63527" lon="4.99436">
        <ele>291.9</ele>
        <time>2020-09-23T12:04:26Z</time>
      </trkpt>
      <trkpt lat="49.63535" lon="4.99441">
        <ele>290.94</ele>
        <time>2020-09-23T12:04:37Z</time>
      </trkpt>
      <trkpt lat="49.63538" lon="4.99441">
        <ele>290.94</ele>
        <time>2020-09-23T12:04:40Z</time>
      </trkpt>
      <trkpt lat="49.63541" lon="4.99443">
        <ele>289.97</ele>
        <time>2020-09-23T12:04:42Z</time>
      </trkpt>
      <trkpt lat="49.63543" lon="4.99442">
        <ele>289.97</ele>
        <time>2020-09-23T12:04:44Z</time>
      </trkpt>
      <trkpt lat="49.63557" lon="4.99445">
        <ele>286.61</ele>
        <time>2020-09-23T12:04:59Z</time>
      </trkpt>
      <trkpt lat="49.6357" lon="4.99452">
        <ele>283.25</ele>
        <time>2020-09-23T12:05:14Z</time>
      </trkpt>
      <trkpt lat="49.63581" lon="4.99457">
        <ele>280.84</ele>
        <time>2020-09-23T12:05:27Z</time>
      </trkpt>
      <trkpt lat="49.63595" lon="4.99459">
        <ele>278.92</ele>
        <time>2020-09-23T12:05:40Z</time>
      </trkpt>
      <trkpt lat="49.63596" lon="4.99461">
        <ele>278.44</ele>
        <time>2020-09-23T12:05:42Z</time>
      </trkpt>
      <trkpt lat="49.63607" lon="4.99467">
        <ele>276.52</ele>
        <time>2020-09-23T12:05:54Z</time>
      </trkpt>
      <trkpt lat="49.63619" lon="4.99473">
        <ele>275.07</ele>
        <time>2020-09-23T12:06:08Z</time>
      </trkpt>
      <trkpt lat="49.6362" lon="4.99474">
        <ele>275.56</ele>
        <time>2020-09-23T12:06:10Z</time>
      </trkpt>
      <trkpt lat="49.63628" lon="4.99479">
        <ele>277.48</ele>
        <time>2020-09-23T12:06:20Z</time>
      </trkpt>
      <trkpt lat="49.63631" lon="4.99477">
        <ele>278.44</ele>
        <time>2020-09-23T12:06:23Z</time>
      </trkpt>
      <trkpt lat="49.63641" lon="4.99479">
        <ele>280.84</ele>
        <time>2020-09-23T12:06:34Z</time>
      </trkpt>
      <trkpt lat="49.63653" lon="4.99489">
        <ele>281.32</ele>
        <time>2020-09-23T12:06:47Z</time>
      </trkpt>
      <trkpt lat="49.63656" lon="4.9949">
        <ele>281.32</ele>
        <time>2020-09-23T12:06:52Z</time>
      </trkpt>
      <trkpt lat="49.6367" lon="4.99493">
        <ele>281.8</ele>
        <time>2020-09-23T12:07:06Z</time>
      </trkpt>
      <trkpt lat="49.63674" lon="4.99493">
        <ele>281.32</ele>
        <time>2020-09-23T12:07:09Z</time>
      </trkpt>
      <trkpt lat="49.63689" lon="4.99499">
        <ele>278.44</ele>
        <time>2020-09-23T12:07:24Z</time>
      </trkpt>
      <trkpt lat="49.63701" lon="4.995">
        <ele>274.59</ele>
        <time>2020-09-23T12:07:36Z</time>
      </trkpt>
      <trkpt lat="49.63707" lon="4.99502">
        <ele>271.71</ele>
        <time>2020-09-23T12:07:42Z</time>
      </trkpt>
      <trkpt lat="49.63718" lon="4.9951">
        <ele>267.86</ele>
        <time>2020-09-23T12:07:56Z</time>
      </trkpt>
      <trkpt lat="49.6372" lon="4.99511">
        <ele>267.38</ele>
        <time>2020-09-23T12:07:58Z</time>
      </trkpt>
      <trkpt lat="49.6373" lon="4.99517">
        <ele>264.02</ele>
        <time>2020-09-23T12:08:09Z</time>
      </trkpt>
      <trkpt lat="49.63732" lon="4.9952">
        <ele>263.06</ele>
        <time>2020-09-23T12:08:12Z</time>
      </trkpt>
      <trkpt lat="49.63737" lon="4.99523">
        <ele>263.06</ele>
        <time>2020-09-23T12:08:21Z</time>
      </trkpt>
      <trkpt lat="49.63742" lon="4.99526">
        <ele>262.1</ele>
        <time>2020-09-23T12:08:26Z</time>
      </trkpt>
      <trkpt lat="49.63752" lon="4.99533">
        <ele>259.69</ele>
        <time>2020-09-23T12:08:39Z</time>
      </trkpt>
      <trkpt lat="49.63762" lon="4.99536">
        <ele>255.85</ele>
        <time>2020-09-23T12:08:50Z</time>
      </trkpt>
      <trkpt lat="49.63766" lon="4.99539">
        <ele>255.85</ele>
        <time>2020-09-23T12:08:55Z</time>
      </trkpt>
      <trkpt lat="49.63774" lon="4.9954">
        <ele>255.85</ele>
        <time>2020-09-23T12:09:04Z</time>
      </trkpt>
      <trkpt lat="49.63779" lon="4.99543">
        <ele>256.33</ele>
        <time>2020-09-23T12:09:09Z</time>
      </trkpt>
      <trkpt lat="49.63789" lon="4.99544">
        <ele>254.89</ele>
        <time>2020-09-23T12:09:22Z</time>
      </trkpt>
      <trkpt lat="49.63794" lon="4.99544">
        <ele>254.89</ele>
        <time>2020-09-23T12:09:28Z</time>
      </trkpt>
      <trkpt lat="49.63807" lon="4.99543">
        <ele>254.89</ele>
        <time>2020-09-23T12:09:43Z</time>
      </trkpt>
      <trkpt lat="49.63818" lon="4.9954">
        <ele>253.44</ele>
        <time>2020-09-23T12:09:57Z</time>
      </trkpt>
      <trkpt lat="49.63829" lon="4.99536">
        <ele>252</ele>
        <time>2020-09-23T12:10:10Z</time>
      </trkpt>
      <trkpt lat="49.63838" lon="4.99531">
        <ele>249.6</ele>
        <time>2020-09-23T12:10:23Z</time>
      </trkpt>
      <trkpt lat="49.63843" lon="4.99527">
        <ele>249.12</ele>
        <time>2020-09-23T12:10:28Z</time>
      </trkpt>
      <trkpt lat="49.63854" lon="4.9952">
        <ele>245.75</ele>
        <time>2020-09-23T12:10:42Z</time>
      </trkpt>
      <trkpt lat="49.63869" lon="4.99509">
        <ele>243.83</ele>
        <time>2020-09-23T12:10:57Z</time>
      </trkpt>
      <trkpt lat="49.63879" lon="4.99502">
        <ele>241.43</ele>
        <time>2020-09-23T12:11:09Z</time>
      </trkpt>
      <trkpt lat="49.63889" lon="4.99495">
        <ele>239.02</ele>
        <time>2020-09-23T12:11:23Z</time>
      </trkpt>
      <trkpt lat="49.63903" lon="4.9949">
        <ele>236.62</ele>
        <time>2020-09-23T12:11:39Z</time>
      </trkpt>
      <trkpt lat="49.63915" lon="4.99485">
        <ele>235.66</ele>
        <time>2020-09-23T12:11:53Z</time>
      </trkpt>
      <trkpt lat="49.63917" lon="4.99484">
        <ele>235.66</ele>
        <time>2020-09-23T12:11:57Z</time>
      </trkpt>
      <trkpt lat="49.63921" lon="4.99484">
        <ele>235.18</ele>
        <time>2020-09-23T12:12:00Z</time>
      </trkpt>
      <trkpt lat="49.63933" lon="4.99475">
        <ele>234.22</ele>
        <time>2020-09-23T12:12:16Z</time>
      </trkpt>
      <trkpt lat="49.63946" lon="4.99474">
        <ele>234.7</ele>
        <time>2020-09-23T12:12:33Z</time>
      </trkpt>
      <trkpt lat="49.63961" lon="4.99468">
        <ele>235.66</ele>
        <time>2020-09-23T12:12:48Z</time>
      </trkpt>
      <trkpt lat="49.63967" lon="4.99464">
        <ele>234.22</ele>
        <time>2020-09-23T12:12:56Z</time>
      </trkpt>
      <trkpt lat="49.63969" lon="4.99463">
        <ele>233.74</ele>
        <time>2020-09-23T12:12:58Z</time>
      </trkpt>
      <trkpt lat="49.63978" lon="4.99464">
        <ele>231.33</ele>
        <time>2020-09-23T12:13:06Z</time>
      </trkpt>
      <trkpt lat="49.63982" lon="4.99463">
        <ele>230.37</ele>
        <time>2020-09-23T12:13:13Z</time>
      </trkpt>
      <trkpt lat="49.63986" lon="4.99463">
        <ele>230.37</ele>
        <time>2020-09-23T12:13:16Z</time>
      </trkpt>
      <trkpt lat="49.63998" lon="4.99467">
        <ele>230.37</ele>
        <time>2020-09-23T12:13:29Z</time>
      </trkpt>
      <trkpt lat="49.64009" lon="4.99469">
        <ele>228.45</ele>
        <time>2020-09-23T12:13:41Z</time>
      </trkpt>
      <trkpt lat="49.64022" lon="4.99471">
        <ele>226.05</ele>
        <time>2020-09-23T12:13:54Z</time>
      </trkpt>
      <trkpt lat="49.64031" lon="4.9947">
        <ele>225.57</ele>
        <time>2020-09-23T12:14:03Z</time>
      </trkpt>
      <trkpt lat="49.64044" lon="4.99475">
        <ele>224.61</ele>
        <time>2020-09-23T12:14:17Z</time>
      </trkpt>
      <trkpt lat="49.64045" lon="4.99476">
        <ele>224.12</ele>
        <time>2020-09-23T12:14:19Z</time>
      </trkpt>
      <trkpt lat="49.64062" lon="4.99483">
        <ele>222.2</ele>
        <time>2020-09-23T12:14:35Z</time>
      </trkpt>
      <trkpt lat="49.64076" lon="4.99487">
        <ele>221.24</ele>
        <time>2020-09-23T12:14:49Z</time>
      </trkpt>
      <trkpt lat="49.64091" lon="4.99491">
        <ele>219.8</ele>
        <time>2020-09-23T12:15:03Z</time>
      </trkpt>
      <trkpt lat="49.64106" lon="4.99493">
        <ele>219.32</ele>
        <time>2020-09-23T12:15:17Z</time>
      </trkpt>
      <trkpt lat="49.64117" lon="4.99498">
        <ele>218.36</ele>
        <time>2020-09-23T12:15:29Z</time>
      </trkpt>
      <trkpt lat="49.64133" lon="4.99505">
        <ele>218.84</ele>
        <time>2020-09-23T12:15:45Z</time>
      </trkpt>
      <trkpt lat="49.64147" lon="4.99511">
        <ele>217.88</ele>
        <time>2020-09-23T12:16:00Z</time>
      </trkpt>
      <trkpt lat="49.64158" lon="4.99517">
        <ele>216.43</ele>
        <time>2020-09-23T12:16:13Z</time>
      </trkpt>
      <trkpt lat="49.64161" lon="4.9952">
        <ele>217.4</ele>
        <time>2020-09-23T12:16:17Z</time>
      </trkpt>
      <trkpt lat="49.64171" lon="4.99525">
        <ele>217.88</ele>
        <time>2020-09-23T12:16:29Z</time>
      </trkpt>
      <trkpt lat="49.64173" lon="4.99527">
        <ele>217.4</ele>
        <time>2020-09-23T12:16:33Z</time>
      </trkpt>
      <trkpt lat="49.64175" lon="4.9953">
        <ele>217.4</ele>
        <time>2020-09-23T12:16:35Z</time>
      </trkpt>
      <trkpt lat="49.64187" lon="4.99539">
        <ele>216.91</ele>
        <time>2020-09-23T12:16:49Z</time>
      </trkpt>
      <trkpt lat="49.64202" lon="4.99551">
        <ele>216.43</ele>
        <time>2020-09-23T12:17:05Z</time>
      </trkpt>
      <trkpt lat="49.64217" lon="4.99559">
        <ele>216.43</ele>
        <time>2020-09-23T12:17:20Z</time>
      </trkpt>
      <trkpt lat="49.64228" lon="4.99567">
        <ele>216.43</ele>
        <time>2020-09-23T12:17:34Z</time>
      </trkpt>
      <trkpt lat="49.6424" lon="4.99573">
        <ele>216.91</ele>
        <time>2020-09-23T12:17:47Z</time>
      </trkpt>
      <trkpt lat="49.64253" lon="4.99579">
        <ele>215.95</ele>
        <time>2020-09-23T12:18:01Z</time>
      </trkpt>
      <trkpt lat="49.64261" lon="4.99584">
        <ele>214.99</ele>
        <time>2020-09-23T12:18:15Z</time>
      </trkpt>
      <trkpt lat="49.64276" lon="4.99588">
        <ele>214.99</ele>
        <time>2020-09-23T12:18:31Z</time>
      </trkpt>
      <trkpt lat="49.64286" lon="4.99593">
        <ele>214.51</ele>
        <time>2020-09-23T12:18:41Z</time>
      </trkpt>
      <trkpt lat="49.64297" lon="4.99594">
        <ele>214.51</ele>
        <time>2020-09-23T12:18:55Z</time>
      </trkpt>
      <trkpt lat="49.64312" lon="4.99596">
        <ele>216.43</ele>
        <time>2020-09-23T12:19:10Z</time>
      </trkpt>
      <trkpt lat="49.64317" lon="4.99597">
        <ele>217.4</ele>
        <time>2020-09-23T12:19:14Z</time>
      </trkpt>
      <trkpt lat="49.64323" lon="4.99598">
        <ele>217.4</ele>
        <time>2020-09-23T12:19:19Z</time>
      </trkpt>
      <trkpt lat="49.64334" lon="4.99597">
        <ele>217.4</ele>
        <time>2020-09-23T12:19:32Z</time>
      </trkpt>
      <trkpt lat="49.64349" lon="4.99599">
        <ele>217.88</ele>
        <time>2020-09-23T12:19:47Z</time>
      </trkpt>
      <trkpt lat="49.64356" lon="4.99602">
        <ele>217.88</ele>
        <time>2020-09-23T12:19:56Z</time>
      </trkpt>
      <trkpt lat="49.64359" lon="4.99601">
        <ele>217.88</ele>
        <time>2020-09-23T12:20:00Z</time>
      </trkpt>
      <trkpt lat="49.64377" lon="4.99603">
        <ele>215.47</ele>
        <time>2020-09-23T12:20:16Z</time>
      </trkpt>
      <trkpt lat="49.64386" lon="4.99605">
        <ele>211.15</ele>
        <time>2020-09-23T12:20:25Z</time>
      </trkpt>
      <trkpt lat="49.644" lon="4.99603">
        <ele>205.86</ele>
        <time>2020-09-23T12:20:41Z</time>
      </trkpt>
      <trkpt lat="49.64413" lon="4.99602">
        <ele>205.38</ele>
        <time>2020-09-23T12:20:54Z</time>
      </trkpt>
      <trkpt lat="49.64428" lon="4.99601">
        <ele>205.38</ele>
        <time>2020-09-23T12:21:09Z</time>
      </trkpt>
      <trkpt lat="49.64445" lon="4.99601">
        <ele>206.34</ele>
        <time>2020-09-23T12:21:25Z</time>
      </trkpt>
      <trkpt lat="49.64458" lon="4.99597">
        <ele>205.38</ele>
        <time>2020-09-23T12:21:40Z</time>
      </trkpt>
      <trkpt lat="49.64469" lon="4.99585">
        <ele>201.05</ele>
        <time>2020-09-23T12:21:54Z</time>
      </trkpt>
      <trkpt lat="49.64481" lon="4.99571">
        <ele>200.57</ele>
        <time>2020-09-23T12:22:09Z</time>
      </trkpt>
      <trkpt lat="49.64482" lon="4.99569">
        <ele>200.57</ele>
        <time>2020-09-23T12:22:12Z</time>
      </trkpt>
      <trkpt lat="49.64492" lon="4.99554">
        <ele>199.13</ele>
        <time>2020-09-23T12:22:25Z</time>
      </trkpt>
      <trkpt lat="49.64504" lon="4.99543">
        <ele>198.17</ele>
        <time>2020-09-23T12:22:40Z</time>
      </trkpt>
      <trkpt lat="49.64509" lon="4.99533">
        <ele>197.69</ele>
        <time>2020-09-23T12:22:52Z</time>
      </trkpt>
      <trkpt lat="49.64521" lon="4.99519">
        <ele>196.25</ele>
        <time>2020-09-23T12:23:06Z</time>
      </trkpt>
      <trkpt lat="49.6453" lon="4.99508">
        <ele>195.28</ele>
        <time>2020-09-23T12:23:19Z</time>
      </trkpt>
      <trkpt lat="49.6454" lon="4.99497">
        <ele>193.84</ele>
        <time>2020-09-23T12:23:31Z</time>
      </trkpt>
      <trkpt lat="49.64552" lon="4.99482">
        <ele>190.48</ele>
        <time>2020-09-23T12:23:45Z</time>
      </trkpt>
      <trkpt lat="49.64566" lon="4.99467">
        <ele>190.48</ele>
        <time>2020-09-23T12:24:01Z</time>
      </trkpt>
      <trkpt lat="49.64575" lon="4.99458">
        <ele>192.4</ele>
        <time>2020-09-23T12:24:13Z</time>
      </trkpt>
      <trkpt lat="49.64585" lon="4.99446">
        <ele>191.92</ele>
        <time>2020-09-23T12:24:27Z</time>
      </trkpt>
      <trkpt lat="49.64597" lon="4.99432">
        <ele>192.88</ele>
        <time>2020-09-23T12:24:41Z</time>
      </trkpt>
      <trkpt lat="49.646" lon="4.9943">
        <ele>192.88</ele>
        <time>2020-09-23T12:24:45Z</time>
      </trkpt>
      <trkpt lat="49.64617" lon="4.99411">
        <ele>192.88</ele>
        <time>2020-09-23T12:25:02Z</time>
      </trkpt>
      <trkpt lat="49.64621" lon="4.99405">
        <ele>192.88</ele>
        <time>2020-09-23T12:25:12Z</time>
      </trkpt>
      <trkpt lat="49.64627" lon="4.99401">
        <ele>192.4</ele>
        <time>2020-09-23T12:25:16Z</time>
      </trkpt>
      <trkpt lat="49.64638" lon="4.99388">
        <ele>191.92</ele>
        <time>2020-09-23T12:25:30Z</time>
      </trkpt>
      <trkpt lat="49.64649" lon="4.99376">
        <ele>190</ele>
        <time>2020-09-23T12:25:44Z</time>
      </trkpt>
      <trkpt lat="49.64661" lon="4.99363">
        <ele>187.59</ele>
        <time>2020-09-23T12:25:58Z</time>
      </trkpt>
      <trkpt lat="49.64669" lon="4.99354">
        <ele>187.11</ele>
        <time>2020-09-23T12:26:10Z</time>
      </trkpt>
      <trkpt lat="49.64679" lon="4.99344">
        <ele>187.59</ele>
        <time>2020-09-23T12:26:19Z</time>
      </trkpt>
      <trkpt lat="49.64688" lon="4.99332">
        <ele>188.56</ele>
        <time>2020-09-23T12:26:34Z</time>
      </trkpt>
      <trkpt lat="49.64694" lon="4.99323">
        <ele>189.04</ele>
        <time>2020-09-23T12:26:46Z</time>
      </trkpt>
      <trkpt lat="49.64698" lon="4.99313">
        <ele>190</ele>
        <time>2020-09-23T12:26:57Z</time>
      </trkpt>
      <trkpt lat="49.64699" lon="4.99312">
        <ele>189.52</ele>
        <time>2020-09-23T12:27:22Z</time>
      </trkpt>
      <trkpt lat="49.64699" lon="4.99312">
        <ele>189.52</ele>
        <time>2020-09-23T12:27:24Z</time>
      </trkpt>
      <trkpt lat="49.64703" lon="4.99311">
        <ele>189.04</ele>
        <time>2020-09-23T12:27:30Z</time>
      </trkpt>
      <trkpt lat="49.64716" lon="4.99296">
        <ele>186.63</ele>
        <time>2020-09-23T12:27:46Z</time>
      </trkpt>
      <trkpt lat="49.6473" lon="4.99279">
        <ele>185.67</ele>
        <time>2020-09-23T12:28:01Z</time>
      </trkpt>
      <trkpt lat="49.64739" lon="4.99267">
        <ele>185.67</ele>
        <time>2020-09-23T12:28:17Z</time>
      </trkpt>
      <trkpt lat="49.6474" lon="4.99266">
        <ele>185.67</ele>
        <time>2020-09-23T12:28:18Z</time>
      </trkpt>
      <trkpt lat="49.64753" lon="4.99245">
        <ele>186.15</ele>
        <time>2020-09-23T12:28:36Z</time>
      </trkpt>
      <trkpt lat="49.64765" lon="4.99232">
        <ele>186.15</ele>
        <time>2020-09-23T12:28:52Z</time>
      </trkpt>
      <trkpt lat="49.64773" lon="4.99218">
        <ele>185.19</ele>
        <time>2020-09-23T12:29:07Z</time>
      </trkpt>
      <trkpt lat="49.64783" lon="4.992">
        <ele>184.71</ele>
        <time>2020-09-23T12:29:21Z</time>
      </trkpt>
      <trkpt lat="49.64791" lon="4.99185">
        <ele>182.31</ele>
        <time>2020-09-23T12:29:36Z</time>
      </trkpt>
      <trkpt lat="49.64805" lon="4.99167">
        <ele>180.38</ele>
        <time>2020-09-23T12:29:52Z</time>
      </trkpt>
      <trkpt lat="49.64811" lon="4.99151">
        <ele>178.46</ele>
        <time>2020-09-23T12:30:07Z</time>
      </trkpt>
      <trkpt lat="49.64802" lon="4.99139">
        <ele>177.5</ele>
        <time>2020-09-23T12:30:22Z</time>
      </trkpt>
      <trkpt lat="49.64798" lon="4.99137">
        <ele>177.02</ele>
        <time>2020-09-23T12:30:27Z</time>
      </trkpt>
      <trkpt lat="49.64791" lon="4.99129">
        <ele>176.54</ele>
        <time>2020-09-23T12:30:34Z</time>
      </trkpt>
      <trkpt lat="49.64776" lon="4.9912">
        <ele>171.25</ele>
        <time>2020-09-23T12:30:47Z</time>
      </trkpt>
      <trkpt lat="49.6476" lon="4.99116">
        <ele>168.37</ele>
        <time>2020-09-23T12:31:03Z</time>
      </trkpt>
      <trkpt lat="49.64745" lon="4.99108">
        <ele>168.37</ele>
        <time>2020-09-23T12:31:19Z</time>
      </trkpt>
      <trkpt lat="49.64727" lon="4.99096">
        <ele>172.21</ele>
        <time>2020-09-23T12:31:34Z</time>
      </trkpt>
      <trkpt lat="49.64712" lon="4.99096">
        <ele>174.14</ele>
        <time>2020-09-23T12:31:49Z</time>
      </trkpt>
      <trkpt lat="49.64692" lon="4.99091">
        <ele>176.06</ele>
        <time>2020-09-23T12:32:06Z</time>
      </trkpt>
      <trkpt lat="49.64676" lon="4.99091">
        <ele>175.58</ele>
        <time>2020-09-23T12:32:22Z</time>
      </trkpt>
      <trkpt lat="49.64668" lon="4.99093">
        <ele>176.06</ele>
        <time>2020-09-23T12:32:35Z</time>
      </trkpt>
      <trkpt lat="49.64656" lon="4.99116">
        <ele>175.58</ele>
        <time>2020-09-23T12:32:50Z</time>
      </trkpt>
      <trkpt lat="49.64653" lon="4.99118">
        <ele>175.58</ele>
        <time>2020-09-23T12:33:03Z</time>
      </trkpt>
      <trkpt lat="49.64645" lon="4.99109">
        <ele>175.1</ele>
        <time>2020-09-23T12:33:15Z</time>
      </trkpt>
      <trkpt lat="49.64644" lon="4.99108">
        <ele>174.62</ele>
        <time>2020-09-23T12:33:37Z</time>
      </trkpt>
      <trkpt lat="49.64644" lon="4.99107">
        <ele>174.14</ele>
        <time>2020-09-23T12:34:01Z</time>
      </trkpt>
      <trkpt lat="49.64643" lon="4.99108">
        <ele>174.62</ele>
        <time>2020-09-23T12:34:27Z</time>
      </trkpt>
      <trkpt lat="49.64643" lon="4.99108">
        <ele>175.58</ele>
        <time>2020-09-23T12:34:46Z</time>
      </trkpt>
      <trkpt lat="49.64643" lon="4.99112">
        <ele>176.06</ele>
        <time>2020-09-23T12:35:04Z</time>
      </trkpt>
      <trkpt lat="49.64643" lon="4.99112">
        <ele>176.06</ele>
        <time>2020-09-23T12:35:06Z</time>
      </trkpt>
      <trkpt lat="49.64649" lon="4.99119">
        <ele>176.54</ele>
        <time>2020-09-23T12:35:13Z</time>
      </trkpt>
      <trkpt lat="49.64653" lon="4.99119">
        <ele>176.54</ele>
        <time>2020-09-23T12:35:28Z</time>
      </trkpt>
      <trkpt lat="49.64653" lon="4.99119">
        <ele>176.54</ele>
        <time>2020-09-23T12:35:30Z</time>
      </trkpt>
      <trkpt lat="49.64661" lon="4.99105">
        <ele>174.62</ele>
        <time>2020-09-23T12:35:47Z</time>
      </trkpt>
      <trkpt lat="49.64664" lon="4.99105">
        <ele>175.1</ele>
        <time>2020-09-23T12:36:06Z</time>
      </trkpt>
      <trkpt lat="49.64666" lon="4.99101">
        <ele>174.62</ele>
        <time>2020-09-23T12:36:11Z</time>
      </trkpt>
      <trkpt lat="49.64671" lon="4.99095">
        <ele>175.1</ele>
        <time>2020-09-23T12:36:24Z</time>
      </trkpt>
      <trkpt lat="49.64672" lon="4.99095">
        <ele>175.1</ele>
        <time>2020-09-23T12:36:33Z</time>
      </trkpt>
      <trkpt lat="49.64686" lon="4.99092">
        <ele>175.1</ele>
        <time>2020-09-23T12:36:46Z</time>
      </trkpt>
      <trkpt lat="49.64702" lon="4.99093">
        <ele>176.06</ele>
        <time>2020-09-23T12:37:04Z</time>
      </trkpt>
      <trkpt lat="49.64716" lon="4.99096">
        <ele>177.5</ele>
        <time>2020-09-23T12:37:21Z</time>
      </trkpt>
      <trkpt lat="49.64734" lon="4.99104">
        <ele>177.98</ele>
        <time>2020-09-23T12:37:38Z</time>
      </trkpt>
      <trkpt lat="49.64742" lon="4.99108">
        <ele>178.94</ele>
        <time>2020-09-23T12:37:44Z</time>
      </trkpt>
      <trkpt lat="49.64763" lon="4.99118">
        <ele>182.79</ele>
        <time>2020-09-23T12:37:58Z</time>
      </trkpt>
      <trkpt lat="49.64776" lon="4.9912">
        <ele>188.08</ele>
        <time>2020-09-23T12:38:15Z</time>
      </trkpt>
      <trkpt lat="49.64778" lon="4.99123">
        <ele>186.15</ele>
        <time>2020-09-23T12:38:32Z</time>
      </trkpt>
      <trkpt lat="49.64777" lon="4.99124">
        <ele>185.67</ele>
        <time>2020-09-23T12:38:37Z</time>
      </trkpt>
      <trkpt lat="49.64782" lon="4.99127">
        <ele>186.15</ele>
        <time>2020-09-23T12:38:42Z</time>
      </trkpt>
      <trkpt lat="49.64786" lon="4.99132">
        <ele>187.59</ele>
        <time>2020-09-23T12:38:45Z</time>
      </trkpt>
      <trkpt lat="49.64798" lon="4.99138">
        <ele>193.84</ele>
        <time>2020-09-23T12:38:57Z</time>
      </trkpt>
      <trkpt lat="49.64814" lon="4.99144">
        <ele>195.28</ele>
        <time>2020-09-23T12:39:10Z</time>
      </trkpt>
      <trkpt lat="49.64829" lon="4.99153">
        <ele>195.28</ele>
        <time>2020-09-23T12:39:21Z</time>
      </trkpt>
      <trkpt lat="49.64843" lon="4.99156">
        <ele>197.69</ele>
        <time>2020-09-23T12:39:35Z</time>
      </trkpt>
      <trkpt lat="49.64852" lon="4.99158">
        <ele>201.05</ele>
        <time>2020-09-23T12:39:46Z</time>
      </trkpt>
      <trkpt lat="49.64863" lon="4.99168">
        <ele>203.46</ele>
        <time>2020-09-23T12:40:00Z</time>
      </trkpt>
      <trkpt lat="49.64872" lon="4.99191">
        <ele>199.13</ele>
        <time>2020-09-23T12:40:18Z</time>
      </trkpt>
      <trkpt lat="49.64884" lon="4.9921">
        <ele>196.25</ele>
        <time>2020-09-23T12:40:37Z</time>
      </trkpt>
      <trkpt lat="49.64888" lon="4.99214">
        <ele>196.25</ele>
        <time>2020-09-23T12:40:42Z</time>
      </trkpt>
      <trkpt lat="49.6489" lon="4.99211">
        <ele>194.8</ele>
        <time>2020-09-23T12:40:46Z</time>
      </trkpt>
      <trkpt lat="49.64888" lon="4.99206">
        <ele>191.92</ele>
        <time>2020-09-23T12:40:51Z</time>
      </trkpt>
      <trkpt lat="49.64889" lon="4.99201">
        <ele>189.04</ele>
        <time>2020-09-23T12:40:57Z</time>
      </trkpt>
      <trkpt lat="49.64898" lon="4.99197">
        <ele>187.59</ele>
        <time>2020-09-23T12:41:06Z</time>
      </trkpt>
      <trkpt lat="49.64908" lon="4.99181">
        <ele>187.11</ele>
        <time>2020-09-23T12:41:23Z</time>
      </trkpt>
      <trkpt lat="49.64924" lon="4.99162">
        <ele>186.15</ele>
        <time>2020-09-23T12:41:39Z</time>
      </trkpt>
      <trkpt lat="49.64935" lon="4.99147">
        <ele>186.63</ele>
        <time>2020-09-23T12:41:53Z</time>
      </trkpt>
      <trkpt lat="49.64943" lon="4.99137">
        <ele>186.63</ele>
        <time>2020-09-23T12:42:06Z</time>
      </trkpt>
      <trkpt lat="49.64959" lon="4.99122">
        <ele>187.59</ele>
        <time>2020-09-23T12:42:22Z</time>
      </trkpt>
      <trkpt lat="49.64965" lon="4.99122">
        <ele>189.04</ele>
        <time>2020-09-23T12:42:30Z</time>
      </trkpt>
      <trkpt lat="49.64966" lon="4.99118">
        <ele>189.04</ele>
        <time>2020-09-23T12:42:34Z</time>
      </trkpt>
      <trkpt lat="49.64963" lon="4.99099">
        <ele>186.15</ele>
        <time>2020-09-23T12:42:46Z</time>
      </trkpt>
      <trkpt lat="49.64959" lon="4.9908">
        <ele>184.23</ele>
        <time>2020-09-23T12:42:58Z</time>
      </trkpt>
      <trkpt lat="49.6495" lon="4.99058">
        <ele>181.83</ele>
        <time>2020-09-23T12:43:13Z</time>
      </trkpt>
      <trkpt lat="49.64941" lon="4.99041">
        <ele>177.98</ele>
        <time>2020-09-23T12:43:28Z</time>
      </trkpt>
      <trkpt lat="49.64932" lon="4.99014">
        <ele>176.54</ele>
        <time>2020-09-23T12:43:50Z</time>
      </trkpt>
      <trkpt lat="49.64937" lon="4.98995">
        <ele>172.69</ele>
        <time>2020-09-23T12:44:04Z</time>
      </trkpt>
      <trkpt lat="49.64949" lon="4.98976">
        <ele>171.25</ele>
        <time>2020-09-23T12:44:19Z</time>
      </trkpt>
      <trkpt lat="49.64954" lon="4.98962">
        <ele>168.37</ele>
        <time>2020-09-23T12:44:28Z</time>
      </trkpt>
      <trkpt lat="49.64959" lon="4.98944">
        <ele>162.6</ele>
        <time>2020-09-23T12:44:40Z</time>
      </trkpt>
      <trkpt lat="49.64962" lon="4.98917">
        <ele>160.68</ele>
        <time>2020-09-23T12:44:55Z</time>
      </trkpt>
      <trkpt lat="49.64964" lon="4.98891">
        <ele>160.68</ele>
        <time>2020-09-23T12:45:10Z</time>
      </trkpt>
      <trkpt lat="49.64963" lon="4.98863">
        <ele>158.75</ele>
        <time>2020-09-23T12:45:29Z</time>
      </trkpt>
      <trkpt lat="49.64965" lon="4.98842">
        <ele>158.27</ele>
        <time>2020-09-23T12:45:44Z</time>
      </trkpt>
      <trkpt lat="49.64967" lon="4.98835">
        <ele>157.79</ele>
        <time>2020-09-23T12:45:48Z</time>
      </trkpt>
      <trkpt lat="49.64972" lon="4.98813">
        <ele>156.35</ele>
        <time>2020-09-23T12:46:05Z</time>
      </trkpt>
      <trkpt lat="49.64978" lon="4.98792">
        <ele>156.35</ele>
        <time>2020-09-23T12:46:20Z</time>
      </trkpt>
      <trkpt lat="49.64983" lon="4.98779">
        <ele>155.39</ele>
        <time>2020-09-23T12:46:28Z</time>
      </trkpt>
      <trkpt lat="49.64988" lon="4.98765">
        <ele>153.47</ele>
        <time>2020-09-23T12:46:39Z</time>
      </trkpt>
      <trkpt lat="49.64982" lon="4.98748">
        <ele>154.43</ele>
        <time>2020-09-23T12:46:52Z</time>
      </trkpt>
      <trkpt lat="49.6498" lon="4.98743">
        <ele>154.91</ele>
        <time>2020-09-23T12:46:56Z</time>
      </trkpt>
      <trkpt lat="49.64969" lon="4.98728">
        <ele>155.39</ele>
        <time>2020-09-23T12:47:11Z</time>
      </trkpt>
      <trkpt lat="49.6496" lon="4.9872">
        <ele>155.87</ele>
        <time>2020-09-23T12:47:24Z</time>
      </trkpt>
      <trkpt lat="49.64958" lon="4.98719">
        <ele>155.87</ele>
        <time>2020-09-23T12:47:37Z</time>
      </trkpt>
      <trkpt lat="49.64958" lon="4.98719">
        <ele>155.87</ele>
        <time>2020-09-23T12:47:53Z</time>
      </trkpt>
      <trkpt lat="49.64957" lon="4.98719">
        <ele>155.87</ele>
        <time>2020-09-23T12:48:20Z</time>
      </trkpt>
      <trkpt lat="49.64957" lon="4.9872">
        <ele>155.39</ele>
        <time>2020-09-23T12:48:46Z</time>
      </trkpt>
      <trkpt lat="49.64957" lon="4.9872">
        <ele>155.39</ele>
        <time>2020-09-23T12:49:18Z</time>
      </trkpt>
      <trkpt lat="49.64956" lon="4.9872">
        <ele>155.39</ele>
        <time>2020-09-23T12:49:50Z</time>
      </trkpt>
      <trkpt lat="49.64956" lon="4.9872">
        <ele>155.39</ele>
        <time>2020-09-23T12:50:27Z</time>
      </trkpt>
      <trkpt lat="49.64955" lon="4.98721">
        <ele>155.39</ele>
        <time>2020-09-23T12:50:57Z</time>
      </trkpt>
      <trkpt lat="49.64955" lon="4.98721">
        <ele>155.87</ele>
        <time>2020-09-23T12:51:28Z</time>
      </trkpt>
      <trkpt lat="49.64955" lon="4.98721">
        <ele>155.87</ele>
        <time>2020-09-23T12:51:59Z</time>
      </trkpt>
      <trkpt lat="49.64955" lon="4.98721">
        <ele>155.87</ele>
        <time>2020-09-23T12:52:33Z</time>
      </trkpt>
      <trkpt lat="49.64955" lon="4.98722">
        <ele>155.87</ele>
        <time>2020-09-23T12:53:10Z</time>
      </trkpt>
      <trkpt lat="49.64955" lon="4.98721">
        <ele>156.35</ele>
        <time>2020-09-23T12:53:43Z</time>
      </trkpt>
      <trkpt lat="49.64955" lon="4.9872">
        <ele>156.35</ele>
        <time>2020-09-23T12:54:02Z</time>
      </trkpt>
      <trkpt lat="49.64955" lon="4.9872">
        <ele>156.35</ele>
        <time>2020-09-23T12:54:31Z</time>
      </trkpt>
      <trkpt lat="49.64955" lon="4.98719">
        <ele>155.39</ele>
        <time>2020-09-23T12:54:57Z</time>
      </trkpt>
      <trkpt lat="49.64955" lon="4.98716">
        <ele>155.87</ele>
        <time>2020-09-23T12:55:07Z</time>
      </trkpt>
      <trkpt lat="49.64953" lon="4.98705">
        <ele>155.87</ele>
        <time>2020-09-23T12:55:15Z</time>
      </trkpt>
      <trkpt lat="49.64949" lon="4.98698">
        <ele>155.87</ele>
        <time>2020-09-23T12:55:20Z</time>
      </trkpt>
      <trkpt lat="49.64944" lon="4.98692">
        <ele>155.87</ele>
        <time>2020-09-23T12:55:27Z</time>
      </trkpt>
      <trkpt lat="49.64936" lon="4.9868">
        <ele>155.87</ele>
        <time>2020-09-23T12:55:40Z</time>
      </trkpt>
      <trkpt lat="49.64923" lon="4.98667">
        <ele>157.31</ele>
        <time>2020-09-23T12:55:55Z</time>
      </trkpt>
      <trkpt lat="49.64912" lon="4.98657">
        <ele>157.79</ele>
        <time>2020-09-23T12:56:08Z</time>
      </trkpt>
      <trkpt lat="49.64906" lon="4.98652">
        <ele>158.75</ele>
        <time>2020-09-23T12:56:15Z</time>
      </trkpt>
      <trkpt lat="49.64894" lon="4.98632">
        <ele>158.27</ele>
        <time>2020-09-23T12:56:31Z</time>
      </trkpt>
      <trkpt lat="49.64886" lon="4.98617">
        <ele>157.31</ele>
        <time>2020-09-23T12:56:44Z</time>
      </trkpt>
      <trkpt lat="49.64881" lon="4.98595">
        <ele>158.27</ele>
        <time>2020-09-23T12:56:59Z</time>
      </trkpt>
      <trkpt lat="49.64879" lon="4.98583">
        <ele>158.27</ele>
        <time>2020-09-23T12:57:07Z</time>
      </trkpt>
      <trkpt lat="49.6488" lon="4.98568">
        <ele>159.72</ele>
        <time>2020-09-23T12:57:17Z</time>
      </trkpt>
      <trkpt lat="49.64884" lon="4.98545">
        <ele>162.12</ele>
        <time>2020-09-23T12:57:30Z</time>
      </trkpt>
      <trkpt lat="49.64887" lon="4.9853">
        <ele>164.04</ele>
        <time>2020-09-23T12:57:42Z</time>
      </trkpt>
      <trkpt lat="49.64891" lon="4.98512">
        <ele>165.96</ele>
        <time>2020-09-23T12:57:54Z</time>
      </trkpt>
      <trkpt lat="49.64892" lon="4.98496">
        <ele>166.45</ele>
        <time>2020-09-23T12:58:07Z</time>
      </trkpt>
      <trkpt lat="49.64895" lon="4.98478">
        <ele>167.89</ele>
        <time>2020-09-23T12:58:19Z</time>
      </trkpt>
      <trkpt lat="49.64898" lon="4.98462">
        <ele>170.29</ele>
        <time>2020-09-23T12:58:31Z</time>
      </trkpt>
      <trkpt lat="49.64904" lon="4.98445">
        <ele>173.17</ele>
        <time>2020-09-23T12:58:43Z</time>
      </trkpt>
      <trkpt lat="49.64909" lon="4.98432">
        <ele>174.62</ele>
        <time>2020-09-23T12:58:54Z</time>
      </trkpt>
      <trkpt lat="49.64916" lon="4.98417">
        <ele>176.54</ele>
        <time>2020-09-23T12:59:05Z</time>
      </trkpt>
      <trkpt lat="49.64919" lon="4.98405">
        <ele>177.5</ele>
        <time>2020-09-23T12:59:15Z</time>
      </trkpt>
      <trkpt lat="49.64926" lon="4.98391">
        <ele>177.02</ele>
        <time>2020-09-23T12:59:26Z</time>
      </trkpt>
      <trkpt lat="49.64931" lon="4.98376">
        <ele>177.98</ele>
        <time>2020-09-23T12:59:36Z</time>
      </trkpt>
      <trkpt lat="49.64935" lon="4.98362">
        <ele>178.94</ele>
        <time>2020-09-23T12:59:46Z</time>
      </trkpt>
      <trkpt lat="49.64935" lon="4.98361">
        <ele>178.94</ele>
        <time>2020-09-23T12:59:48Z</time>
      </trkpt>
      <trkpt lat="49.6494" lon="4.98342">
        <ele>181.83</ele>
        <time>2020-09-23T13:00:00Z</time>
      </trkpt>
      <trkpt lat="49.64941" lon="4.98333">
        <ele>181.35</ele>
        <time>2020-09-23T13:00:06Z</time>
      </trkpt>
      <trkpt lat="49.64947" lon="4.98311">
        <ele>181.35</ele>
        <time>2020-09-23T13:00:20Z</time>
      </trkpt>
      <trkpt lat="49.64952" lon="4.98293">
        <ele>181.83</ele>
        <time>2020-09-23T13:00:33Z</time>
      </trkpt>
      <trkpt lat="49.64957" lon="4.98275">
        <ele>182.31</ele>
        <time>2020-09-23T13:00:46Z</time>
      </trkpt>
      <trkpt lat="49.64959" lon="4.98259">
        <ele>182.79</ele>
        <time>2020-09-23T13:00:57Z</time>
      </trkpt>
      <trkpt lat="49.64962" lon="4.98242">
        <ele>181.35</ele>
        <time>2020-09-23T13:01:09Z</time>
      </trkpt>
      <trkpt lat="49.64963" lon="4.98219">
        <ele>180.87</ele>
        <time>2020-09-23T13:01:22Z</time>
      </trkpt>
      <trkpt lat="49.64961" lon="4.98198">
        <ele>181.83</ele>
        <time>2020-09-23T13:01:35Z</time>
      </trkpt>
      <trkpt lat="49.6496" lon="4.98178">
        <ele>183.75</ele>
        <time>2020-09-23T13:01:48Z</time>
      </trkpt>
      <trkpt lat="49.64959" lon="4.98156">
        <ele>186.15</ele>
        <time>2020-09-23T13:02:01Z</time>
      </trkpt>
      <trkpt lat="49.64956" lon="4.98138">
        <ele>187.11</ele>
        <time>2020-09-23T13:02:13Z</time>
      </trkpt>
      <trkpt lat="49.64955" lon="4.98122">
        <ele>188.08</ele>
        <time>2020-09-23T13:02:25Z</time>
      </trkpt>
      <trkpt lat="49.64953" lon="4.98113">
        <ele>188.56</ele>
        <time>2020-09-23T13:02:37Z</time>
      </trkpt>
      <trkpt lat="49.64953" lon="4.98106">
        <ele>189.52</ele>
        <time>2020-09-23T13:02:49Z</time>
      </trkpt>
      <trkpt lat="49.6495" lon="4.98088">
        <ele>191.92</ele>
        <time>2020-09-23T13:03:01Z</time>
      </trkpt>
      <trkpt lat="49.64946" lon="4.9807">
        <ele>192.4</ele>
        <time>2020-09-23T13:03:14Z</time>
      </trkpt>
      <trkpt lat="49.64942" lon="4.98051">
        <ele>194.8</ele>
        <time>2020-09-23T13:03:26Z</time>
      </trkpt>
      <trkpt lat="49.64937" lon="4.98036">
        <ele>196.73</ele>
        <time>2020-09-23T13:03:38Z</time>
      </trkpt>
      <trkpt lat="49.64931" lon="4.98017">
        <ele>197.21</ele>
        <time>2020-09-23T13:03:50Z</time>
      </trkpt>
      <trkpt lat="49.64927" lon="4.98001">
        <ele>197.21</ele>
        <time>2020-09-23T13:04:03Z</time>
      </trkpt>
      <trkpt lat="49.6492" lon="4.97982">
        <ele>197.69</ele>
        <time>2020-09-23T13:04:16Z</time>
      </trkpt>
      <trkpt lat="49.64915" lon="4.97966">
        <ele>198.65</ele>
        <time>2020-09-23T13:04:29Z</time>
      </trkpt>
      <trkpt lat="49.64914" lon="4.97965">
        <ele>199.13</ele>
        <time>2020-09-23T13:04:30Z</time>
      </trkpt>
      <trkpt lat="49.64909" lon="4.97945">
        <ele>199.61</ele>
        <time>2020-09-23T13:04:43Z</time>
      </trkpt>
      <trkpt lat="49.64906" lon="4.97929">
        <ele>201.05</ele>
        <time>2020-09-23T13:04:55Z</time>
      </trkpt>
      <trkpt lat="49.64903" lon="4.97909">
        <ele>202.98</ele>
        <time>2020-09-23T13:05:08Z</time>
      </trkpt>
      <trkpt lat="49.64901" lon="4.97892">
        <ele>202.98</ele>
        <time>2020-09-23T13:05:20Z</time>
      </trkpt>
      <trkpt lat="49.649" lon="4.97874">
        <ele>202.98</ele>
        <time>2020-09-23T13:05:32Z</time>
      </trkpt>
      <trkpt lat="49.649" lon="4.97856">
        <ele>202.49</ele>
        <time>2020-09-23T13:05:43Z</time>
      </trkpt>
      <trkpt lat="49.64901" lon="4.97838">
        <ele>202.98</ele>
        <time>2020-09-23T13:05:55Z</time>
      </trkpt>
      <trkpt lat="49.64901" lon="4.97817">
        <ele>204.42</ele>
        <time>2020-09-23T13:06:09Z</time>
      </trkpt>
      <trkpt lat="49.64901" lon="4.97796">
        <ele>206.34</ele>
        <time>2020-09-23T13:06:21Z</time>
      </trkpt>
      <trkpt lat="49.64901" lon="4.97776">
        <ele>207.78</ele>
        <time>2020-09-23T13:06:34Z</time>
      </trkpt>
      <trkpt lat="49.64901" lon="4.9776">
        <ele>208.74</ele>
        <time>2020-09-23T13:06:45Z</time>
      </trkpt>
      <trkpt lat="49.64901" lon="4.9775">
        <ele>208.74</ele>
        <time>2020-09-23T13:06:49Z</time>
      </trkpt>
      <trkpt lat="49.64902" lon="4.97732">
        <ele>211.15</ele>
        <time>2020-09-23T13:07:02Z</time>
      </trkpt>
      <trkpt lat="49.64906" lon="4.97714">
        <ele>213.55</ele>
        <time>2020-09-23T13:07:15Z</time>
      </trkpt>
      <trkpt lat="49.64912" lon="4.97699">
        <ele>215.47</ele>
        <time>2020-09-23T13:07:26Z</time>
      </trkpt>
      <trkpt lat="49.64917" lon="4.97683">
        <ele>217.88</ele>
        <time>2020-09-23T13:07:39Z</time>
      </trkpt>
      <trkpt lat="49.64922" lon="4.97669">
        <ele>218.84</ele>
        <time>2020-09-23T13:07:51Z</time>
      </trkpt>
      <trkpt lat="49.64928" lon="4.97653">
        <ele>220.76</ele>
        <time>2020-09-23T13:08:03Z</time>
      </trkpt>
      <trkpt lat="49.64932" lon="4.97638">
        <ele>222.2</ele>
        <time>2020-09-23T13:08:14Z</time>
      </trkpt>
      <trkpt lat="49.64934" lon="4.97633">
        <ele>222.2</ele>
        <time>2020-09-23T13:08:18Z</time>
      </trkpt>
      <trkpt lat="49.64936" lon="4.97626">
        <ele>222.68</ele>
        <time>2020-09-23T13:08:24Z</time>
      </trkpt>
      <trkpt lat="49.6494" lon="4.97613">
        <ele>223.64</ele>
        <time>2020-09-23T13:08:34Z</time>
      </trkpt>
      <trkpt lat="49.64946" lon="4.97592">
        <ele>223.64</ele>
        <time>2020-09-23T13:08:48Z</time>
      </trkpt>
      <trkpt lat="49.64949" lon="4.97574">
        <ele>225.09</ele>
        <time>2020-09-23T13:09:00Z</time>
      </trkpt>
      <trkpt lat="49.6495" lon="4.97556">
        <ele>225.57</ele>
        <time>2020-09-23T13:09:12Z</time>
      </trkpt>
      <trkpt lat="49.64948" lon="4.97537">
        <ele>224.61</ele>
        <time>2020-09-23T13:09:25Z</time>
      </trkpt>
      <trkpt lat="49.64945" lon="4.97518">
        <ele>225.09</ele>
        <time>2020-09-23T13:09:37Z</time>
      </trkpt>
      <trkpt lat="49.64941" lon="4.97505">
        <ele>226.53</ele>
        <time>2020-09-23T13:09:50Z</time>
      </trkpt>
      <trkpt lat="49.64935" lon="4.97487">
        <ele>227.01</ele>
        <time>2020-09-23T13:10:01Z</time>
      </trkpt>
      <trkpt lat="49.64927" lon="4.97472">
        <ele>227.49</ele>
        <time>2020-09-23T13:10:13Z</time>
      </trkpt>
      <trkpt lat="49.64918" lon="4.97457">
        <ele>228.45</ele>
        <time>2020-09-23T13:10:27Z</time>
      </trkpt>
      <trkpt lat="49.6491" lon="4.97443">
        <ele>228.45</ele>
        <time>2020-09-23T13:10:40Z</time>
      </trkpt>
      <trkpt lat="49.649" lon="4.97427">
        <ele>228.93</ele>
        <time>2020-09-23T13:10:52Z</time>
      </trkpt>
      <trkpt lat="49.64892" lon="4.97415">
        <ele>229.41</ele>
        <time>2020-09-23T13:11:04Z</time>
      </trkpt>
      <trkpt lat="49.64883" lon="4.97404">
        <ele>230.37</ele>
        <time>2020-09-23T13:11:16Z</time>
      </trkpt>
      <trkpt lat="49.64878" lon="4.97397">
        <ele>230.85</ele>
        <time>2020-09-23T13:11:21Z</time>
      </trkpt>
      <trkpt lat="49.64866" lon="4.97384">
        <ele>231.81</ele>
        <time>2020-09-23T13:11:36Z</time>
      </trkpt>
      <trkpt lat="49.64855" lon="4.97373">
        <ele>233.26</ele>
        <time>2020-09-23T13:11:50Z</time>
      </trkpt>
      <trkpt lat="49.64842" lon="4.97362">
        <ele>233.74</ele>
        <time>2020-09-23T13:12:04Z</time>
      </trkpt>
      <trkpt lat="49.64831" lon="4.97351">
        <ele>234.22</ele>
        <time>2020-09-23T13:12:16Z</time>
      </trkpt>
      <trkpt lat="49.64821" lon="4.97341">
        <ele>234.7</ele>
        <time>2020-09-23T13:12:29Z</time>
      </trkpt>
      <trkpt lat="49.64818" lon="4.97338">
        <ele>235.18</ele>
        <time>2020-09-23T13:12:33Z</time>
      </trkpt>
      <trkpt lat="49.64806" lon="4.97326">
        <ele>236.14</ele>
        <time>2020-09-23T13:12:46Z</time>
      </trkpt>
      <trkpt lat="49.64796" lon="4.97316">
        <ele>237.58</ele>
        <time>2020-09-23T13:12:59Z</time>
      </trkpt>
      <trkpt lat="49.64785" lon="4.97304">
        <ele>238.54</ele>
        <time>2020-09-23T13:13:13Z</time>
      </trkpt>
      <trkpt lat="49.64776" lon="4.97291">
        <ele>238.06</ele>
        <time>2020-09-23T13:13:25Z</time>
      </trkpt>
      <trkpt lat="49.64766" lon="4.97277">
        <ele>239.02</ele>
        <time>2020-09-23T13:13:37Z</time>
      </trkpt>
      <trkpt lat="49.64758" lon="4.97268">
        <ele>240.47</ele>
        <time>2020-09-23T13:13:49Z</time>
      </trkpt>
      <trkpt lat="49.64748" lon="4.97255">
        <ele>241.43</ele>
        <time>2020-09-23T13:14:01Z</time>
      </trkpt>
      <trkpt lat="49.64743" lon="4.97248">
        <ele>241.91</ele>
        <time>2020-09-23T13:14:09Z</time>
      </trkpt>
      <trkpt lat="49.64738" lon="4.97237">
        <ele>242.39</ele>
        <time>2020-09-23T13:14:18Z</time>
      </trkpt>
      <trkpt lat="49.64738" lon="4.97212">
        <ele>244.31</ele>
        <time>2020-09-23T13:14:32Z</time>
      </trkpt>
      <trkpt lat="49.64737" lon="4.97193">
        <ele>245.27</ele>
        <time>2020-09-23T13:14:44Z</time>
      </trkpt>
      <trkpt lat="49.64739" lon="4.97174">
        <ele>246.72</ele>
        <time>2020-09-23T13:14:58Z</time>
      </trkpt>
      <trkpt lat="49.6474" lon="4.97152">
        <ele>247.2</ele>
        <time>2020-09-23T13:15:11Z</time>
      </trkpt>
      <trkpt lat="49.64742" lon="4.97131">
        <ele>247.68</ele>
        <time>2020-09-23T13:15:24Z</time>
      </trkpt>
      <trkpt lat="49.64743" lon="4.97111">
        <ele>248.64</ele>
        <time>2020-09-23T13:15:39Z</time>
      </trkpt>
      <trkpt lat="49.64744" lon="4.9709">
        <ele>248.64</ele>
        <time>2020-09-23T13:15:52Z</time>
      </trkpt>
      <trkpt lat="49.64745" lon="4.97071">
        <ele>249.6</ele>
        <time>2020-09-23T13:16:04Z</time>
      </trkpt>
      <trkpt lat="49.64744" lon="4.97051">
        <ele>250.56</ele>
        <time>2020-09-23T13:16:18Z</time>
      </trkpt>
      <trkpt lat="49.64742" lon="4.97031">
        <ele>251.52</ele>
        <time>2020-09-23T13:16:32Z</time>
      </trkpt>
      <trkpt lat="49.64742" lon="4.9703">
        <ele>251.52</ele>
        <time>2020-09-23T13:16:33Z</time>
      </trkpt>
      <trkpt lat="49.64741" lon="4.97021">
        <ele>251.52</ele>
        <time>2020-09-23T13:16:37Z</time>
      </trkpt>
      <trkpt lat="49.64738" lon="4.97005">
        <ele>251.52</ele>
        <time>2020-09-23T13:16:49Z</time>
      </trkpt>
      <trkpt lat="49.64736" lon="4.96984">
        <ele>252.48</ele>
        <time>2020-09-23T13:17:02Z</time>
      </trkpt>
      <trkpt lat="49.64731" lon="4.96965">
        <ele>253.44</ele>
        <time>2020-09-23T13:17:15Z</time>
      </trkpt>
      <trkpt lat="49.64726" lon="4.96946">
        <ele>253.44</ele>
        <time>2020-09-23T13:17:29Z</time>
      </trkpt>
      <trkpt lat="49.6472" lon="4.96928">
        <ele>253.93</ele>
        <time>2020-09-23T13:17:41Z</time>
      </trkpt>
      <trkpt lat="49.6472" lon="4.96925">
        <ele>254.41</ele>
        <time>2020-09-23T13:17:43Z</time>
      </trkpt>
      <trkpt lat="49.64714" lon="4.96908">
        <ele>253.93</ele>
        <time>2020-09-23T13:17:56Z</time>
      </trkpt>
      <trkpt lat="49.64713" lon="4.96903">
        <ele>253.44</ele>
        <time>2020-09-23T13:17:59Z</time>
      </trkpt>
      <trkpt lat="49.64708" lon="4.96886">
        <ele>252.96</ele>
        <time>2020-09-23T13:18:11Z</time>
      </trkpt>
      <trkpt lat="49.64703" lon="4.96867">
        <ele>250.56</ele>
        <time>2020-09-23T13:18:24Z</time>
      </trkpt>
      <trkpt lat="49.647" lon="4.96844">
        <ele>249.12</ele>
        <time>2020-09-23T13:18:39Z</time>
      </trkpt>
      <trkpt lat="49.64694" lon="4.96822">
        <ele>248.64</ele>
        <time>2020-09-23T13:18:54Z</time>
      </trkpt>
      <trkpt lat="49.64691" lon="4.968">
        <ele>246.72</ele>
        <time>2020-09-23T13:19:09Z</time>
      </trkpt>
      <trkpt lat="49.64689" lon="4.9678">
        <ele>246.72</ele>
        <time>2020-09-23T13:19:23Z</time>
      </trkpt>
      <trkpt lat="49.64684" lon="4.96759">
        <ele>248.16</ele>
        <time>2020-09-23T13:19:37Z</time>
      </trkpt>
      <trkpt lat="49.64681" lon="4.96754">
        <ele>248.64</ele>
        <time>2020-09-23T13:19:42Z</time>
      </trkpt>
      <trkpt lat="49.64678" lon="4.96729">
        <ele>247.68</ele>
        <time>2020-09-23T13:19:58Z</time>
      </trkpt>
      <trkpt lat="49.64674" lon="4.96706">
        <ele>251.04</ele>
        <time>2020-09-23T13:20:13Z</time>
      </trkpt>
      <trkpt lat="49.64671" lon="4.96686">
        <ele>253.44</ele>
        <time>2020-09-23T13:20:25Z</time>
      </trkpt>
      <trkpt lat="49.64669" lon="4.9667">
        <ele>254.89</ele>
        <time>2020-09-23T13:20:37Z</time>
      </trkpt>
      <trkpt lat="49.64668" lon="4.96664">
        <ele>255.85</ele>
        <time>2020-09-23T13:20:40Z</time>
      </trkpt>
      <trkpt lat="49.64666" lon="4.96648">
        <ele>255.85</ele>
        <time>2020-09-23T13:20:51Z</time>
      </trkpt>
      <trkpt lat="49.64667" lon="4.96623">
        <ele>257.77</ele>
        <time>2020-09-23T13:21:07Z</time>
      </trkpt>
      <trkpt lat="49.64668" lon="4.96604">
        <ele>257.29</ele>
        <time>2020-09-23T13:21:21Z</time>
      </trkpt>
      <trkpt lat="49.64669" lon="4.96579">
        <ele>253.44</ele>
        <time>2020-09-23T13:21:37Z</time>
      </trkpt>
      <trkpt lat="49.64667" lon="4.96552">
        <ele>254.41</ele>
        <time>2020-09-23T13:21:54Z</time>
      </trkpt>
      <trkpt lat="49.64665" lon="4.96534">
        <ele>253.44</ele>
        <time>2020-09-23T13:22:06Z</time>
      </trkpt>
      <trkpt lat="49.6466" lon="4.96511">
        <ele>252.96</ele>
        <time>2020-09-23T13:22:21Z</time>
      </trkpt>
      <trkpt lat="49.64653" lon="4.96494">
        <ele>253.93</ele>
        <time>2020-09-23T13:22:33Z</time>
      </trkpt>
      <trkpt lat="49.64646" lon="4.96478">
        <ele>257.77</ele>
        <time>2020-09-23T13:22:46Z</time>
      </trkpt>
      <trkpt lat="49.64639" lon="4.96463">
        <ele>260.17</ele>
        <time>2020-09-23T13:22:59Z</time>
      </trkpt>
      <trkpt lat="49.64632" lon="4.96447">
        <ele>261.14</ele>
        <time>2020-09-23T13:23:12Z</time>
      </trkpt>
      <trkpt lat="49.64626" lon="4.9643">
        <ele>261.14</ele>
        <time>2020-09-23T13:23:24Z</time>
      </trkpt>
      <trkpt lat="49.6462" lon="4.9641">
        <ele>263.54</ele>
        <time>2020-09-23T13:23:38Z</time>
      </trkpt>
      <trkpt lat="49.64613" lon="4.96391">
        <ele>265.94</ele>
        <time>2020-09-23T13:23:50Z</time>
      </trkpt>
      <trkpt lat="49.64608" lon="4.96378">
        <ele>267.38</ele>
        <time>2020-09-23T13:24:03Z</time>
      </trkpt>
      <trkpt lat="49.64607" lon="4.96375">
        <ele>267.38</ele>
        <time>2020-09-23T13:24:05Z</time>
      </trkpt>
      <trkpt lat="49.64605" lon="4.96366">
        <ele>268.35</ele>
        <time>2020-09-23T13:24:11Z</time>
      </trkpt>
      <trkpt lat="49.64601" lon="4.96346">
        <ele>271.23</ele>
        <time>2020-09-23T13:24:23Z</time>
      </trkpt>
      <trkpt lat="49.64599" lon="4.96338">
        <ele>272.19</ele>
        <time>2020-09-23T13:24:29Z</time>
      </trkpt>
      <trkpt lat="49.64594" lon="4.96318">
        <ele>272.67</ele>
        <time>2020-09-23T13:24:42Z</time>
      </trkpt>
      <trkpt lat="49.64589" lon="4.96302">
        <ele>272.67</ele>
        <time>2020-09-23T13:24:54Z</time>
      </trkpt>
      <trkpt lat="49.64587" lon="4.96285">
        <ele>275.07</ele>
        <time>2020-09-23T13:25:05Z</time>
      </trkpt>
      <trkpt lat="49.64581" lon="4.96268">
        <ele>276.04</ele>
        <time>2020-09-23T13:25:19Z</time>
      </trkpt>
      <trkpt lat="49.64577" lon="4.96261">
        <ele>277</ele>
        <time>2020-09-23T13:25:35Z</time>
      </trkpt>
      <trkpt lat="49.64572" lon="4.96245">
        <ele>277</ele>
        <time>2020-09-23T13:25:47Z</time>
      </trkpt>
      <trkpt lat="49.64567" lon="4.96228">
        <ele>278.92</ele>
        <time>2020-09-23T13:25:59Z</time>
      </trkpt>
      <trkpt lat="49.64562" lon="4.96211">
        <ele>280.36</ele>
        <time>2020-09-23T13:26:11Z</time>
      </trkpt>
      <trkpt lat="49.64558" lon="4.96195">
        <ele>282.77</ele>
        <time>2020-09-23T13:26:23Z</time>
      </trkpt>
      <trkpt lat="49.64553" lon="4.96182">
        <ele>284.69</ele>
        <time>2020-09-23T13:26:34Z</time>
      </trkpt>
      <trkpt lat="49.64549" lon="4.96169">
        <ele>286.13</ele>
        <time>2020-09-23T13:26:44Z</time>
      </trkpt>
      <trkpt lat="49.64547" lon="4.96159">
        <ele>288.05</ele>
        <time>2020-09-23T13:26:51Z</time>
      </trkpt>
      <trkpt lat="49.64543" lon="4.96139">
        <ele>289.49</ele>
        <time>2020-09-23T13:27:04Z</time>
      </trkpt>
      <trkpt lat="49.64538" lon="4.9612">
        <ele>290.46</ele>
        <time>2020-09-23T13:27:17Z</time>
      </trkpt>
      <trkpt lat="49.64537" lon="4.96118">
        <ele>290.46</ele>
        <time>2020-09-23T13:27:18Z</time>
      </trkpt>
      <trkpt lat="49.64533" lon="4.96106">
        <ele>292.38</ele>
        <time>2020-09-23T13:27:27Z</time>
      </trkpt>
      <trkpt lat="49.64531" lon="4.96094">
        <ele>294.78</ele>
        <time>2020-09-23T13:27:36Z</time>
      </trkpt>
      <trkpt lat="49.64525" lon="4.96075">
        <ele>296.22</ele>
        <time>2020-09-23T13:27:49Z</time>
      </trkpt>
      <trkpt lat="49.64519" lon="4.9606">
        <ele>296.7</ele>
        <time>2020-09-23T13:28:00Z</time>
      </trkpt>
      <trkpt lat="49.64514" lon="4.96042">
        <ele>298.15</ele>
        <time>2020-09-23T13:28:13Z</time>
      </trkpt>
      <trkpt lat="49.64506" lon="4.96033">
        <ele>299.11</ele>
        <time>2020-09-23T13:28:26Z</time>
      </trkpt>
      <trkpt lat="49.64501" lon="4.96031">
        <ele>298.15</ele>
        <time>2020-09-23T13:28:30Z</time>
      </trkpt>
      <trkpt lat="49.64488" lon="4.96034">
        <ele>298.63</ele>
        <time>2020-09-23T13:28:43Z</time>
      </trkpt>
      <trkpt lat="49.64485" lon="4.96033">
        <ele>299.59</ele>
        <time>2020-09-23T13:28:47Z</time>
      </trkpt>
      <trkpt lat="49.64472" lon="4.96035">
        <ele>302.47</ele>
        <time>2020-09-23T13:29:02Z</time>
      </trkpt>
      <trkpt lat="49.64458" lon="4.96035">
        <ele>304.88</ele>
        <time>2020-09-23T13:29:16Z</time>
      </trkpt>
      <trkpt lat="49.64445" lon="4.96041">
        <ele>304.88</ele>
        <time>2020-09-23T13:29:30Z</time>
      </trkpt>
      <trkpt lat="49.64441" lon="4.96043">
        <ele>304.88</ele>
        <time>2020-09-23T13:29:43Z</time>
      </trkpt>
      <trkpt lat="49.64439" lon="4.96049">
        <ele>305.84</ele>
        <time>2020-09-23T13:29:51Z</time>
      </trkpt>
      <trkpt lat="49.64436" lon="4.96053">
        <ele>306.8</ele>
        <time>2020-09-23T13:29:57Z</time>
      </trkpt>
      <trkpt lat="49.6443" lon="4.96062">
        <ele>305.84</ele>
        <time>2020-09-23T13:30:10Z</time>
      </trkpt>
      <trkpt lat="49.64414" lon="4.96075">
        <ele>306.8</ele>
        <time>2020-09-23T13:30:26Z</time>
      </trkpt>
      <trkpt lat="49.64405" lon="4.96086">
        <ele>310.16</ele>
        <time>2020-09-23T13:30:41Z</time>
      </trkpt>
      <trkpt lat="49.64389" lon="4.96103">
        <ele>308.72</ele>
        <time>2020-09-23T13:30:53Z</time>
      </trkpt>
      <trkpt lat="49.64382" lon="4.96112">
        <ele>304.88</ele>
        <time>2020-09-23T13:31:09Z</time>
      </trkpt>
      <trkpt lat="49.64374" lon="4.96124">
        <ele>302.95</ele>
        <time>2020-09-23T13:31:18Z</time>
      </trkpt>
      <trkpt lat="49.64365" lon="4.96141">
        <ele>298.63</ele>
        <time>2020-09-23T13:31:31Z</time>
      </trkpt>
      <trkpt lat="49.64355" lon="4.96164">
        <ele>294.3</ele>
        <time>2020-09-23T13:31:45Z</time>
      </trkpt>
      <trkpt lat="49.64348" lon="4.96187">
        <ele>290.46</ele>
        <time>2020-09-23T13:31:58Z</time>
      </trkpt>
      <trkpt lat="49.64342" lon="4.96204">
        <ele>289.49</ele>
        <time>2020-09-23T13:32:14Z</time>
      </trkpt>
      <trkpt lat="49.64334" lon="4.96227">
        <ele>289.01</ele>
        <time>2020-09-23T13:32:30Z</time>
      </trkpt>
      <trkpt lat="49.64335" lon="4.96234">
        <ele>286.61</ele>
        <time>2020-09-23T13:32:37Z</time>
      </trkpt>
      <trkpt lat="49.64335" lon="4.96241">
        <ele>285.65</ele>
        <time>2020-09-23T13:32:42Z</time>
      </trkpt>
      <trkpt lat="49.64333" lon="4.96249">
        <ele>284.69</ele>
        <time>2020-09-23T13:32:48Z</time>
      </trkpt>
      <trkpt lat="49.64329" lon="4.96265">
        <ele>282.28</ele>
        <time>2020-09-23T13:33:02Z</time>
      </trkpt>
      <trkpt lat="49.64322" lon="4.96278">
        <ele>279.88</ele>
        <time>2020-09-23T13:33:16Z</time>
      </trkpt>
      <trkpt lat="49.64311" lon="4.963">
        <ele>276.52</ele>
        <time>2020-09-23T13:33:34Z</time>
      </trkpt>
      <trkpt lat="49.64304" lon="4.96312">
        <ele>274.11</ele>
        <time>2020-09-23T13:33:48Z</time>
      </trkpt>
      <trkpt lat="49.64295" lon="4.96322">
        <ele>271.23</ele>
        <time>2020-09-23T13:33:58Z</time>
      </trkpt>
      <trkpt lat="49.64291" lon="4.9633">
        <ele>270.27</ele>
        <time>2020-09-23T13:34:04Z</time>
      </trkpt>
      <trkpt lat="49.64281" lon="4.96342">
        <ele>268.35</ele>
        <time>2020-09-23T13:34:22Z</time>
      </trkpt>
      <trkpt lat="49.64268" lon="4.96357">
        <ele>266.9</ele>
        <time>2020-09-23T13:34:37Z</time>
      </trkpt>
      <trkpt lat="49.64265" lon="4.9636">
        <ele>266.9</ele>
        <time>2020-09-23T13:34:41Z</time>
      </trkpt>
      <trkpt lat="49.64256" lon="4.96377">
        <ele>263.06</ele>
        <time>2020-09-23T13:34:56Z</time>
      </trkpt>
      <trkpt lat="49.64247" lon="4.96392">
        <ele>260.17</ele>
        <time>2020-09-23T13:35:11Z</time>
      </trkpt>
      <trkpt lat="49.64239" lon="4.96409">
        <ele>259.69</ele>
        <time>2020-09-23T13:35:25Z</time>
      </trkpt>
      <trkpt lat="49.64233" lon="4.96423">
        <ele>255.85</ele>
        <time>2020-09-23T13:35:40Z</time>
      </trkpt>
      <trkpt lat="49.64224" lon="4.96436">
        <ele>255.37</ele>
        <time>2020-09-23T13:35:57Z</time>
      </trkpt>
      <trkpt lat="49.6421" lon="4.96459">
        <ele>254.41</ele>
        <time>2020-09-23T13:36:16Z</time>
      </trkpt>
      <trkpt lat="49.64196" lon="4.96479">
        <ele>253.44</ele>
        <time>2020-09-23T13:36:32Z</time>
      </trkpt>
      <trkpt lat="49.64182" lon="4.96495">
        <ele>252.96</ele>
        <time>2020-09-23T13:36:48Z</time>
      </trkpt>
      <trkpt lat="49.6417" lon="4.96512">
        <ele>251.04</ele>
        <time>2020-09-23T13:37:03Z</time>
      </trkpt>
      <trkpt lat="49.64156" lon="4.96527">
        <ele>251.52</ele>
        <time>2020-09-23T13:37:20Z</time>
      </trkpt>
      <trkpt lat="49.64145" lon="4.96543">
        <ele>248.64</ele>
        <time>2020-09-23T13:37:34Z</time>
      </trkpt>
      <trkpt lat="49.64139" lon="4.96548">
        <ele>247.68</ele>
        <time>2020-09-23T13:37:45Z</time>
      </trkpt>
      <trkpt lat="49.64125" lon="4.96565">
        <ele>246.23</ele>
        <time>2020-09-23T13:38:01Z</time>
      </trkpt>
      <trkpt lat="49.64115" lon="4.96579">
        <ele>244.31</ele>
        <time>2020-09-23T13:38:15Z</time>
      </trkpt>
      <trkpt lat="49.64107" lon="4.96585">
        <ele>244.31</ele>
        <time>2020-09-23T13:38:26Z</time>
      </trkpt>
      <trkpt lat="49.6409" lon="4.96606">
        <ele>243.35</ele>
        <time>2020-09-23T13:38:43Z</time>
      </trkpt>
      <trkpt lat="49.6408" lon="4.9662">
        <ele>240.95</ele>
        <time>2020-09-23T13:38:59Z</time>
      </trkpt>
      <trkpt lat="49.64071" lon="4.96634">
        <ele>239.51</ele>
        <time>2020-09-23T13:39:14Z</time>
      </trkpt>
      <trkpt lat="49.64061" lon="4.96656">
        <ele>237.58</ele>
        <time>2020-09-23T13:39:29Z</time>
      </trkpt>
      <trkpt lat="49.64057" lon="4.96673">
        <ele>235.66</ele>
        <time>2020-09-23T13:39:43Z</time>
      </trkpt>
      <trkpt lat="49.64052" lon="4.967">
        <ele>236.14</ele>
        <time>2020-09-23T13:39:58Z</time>
      </trkpt>
      <trkpt lat="49.64047" lon="4.96719">
        <ele>235.18</ele>
        <time>2020-09-23T13:40:11Z</time>
      </trkpt>
      <trkpt lat="49.64043" lon="4.96737">
        <ele>233.26</ele>
        <time>2020-09-23T13:40:25Z</time>
      </trkpt>
      <trkpt lat="49.64036" lon="4.96759">
        <ele>231.81</ele>
        <time>2020-09-23T13:40:41Z</time>
      </trkpt>
      <trkpt lat="49.64027" lon="4.96779">
        <ele>229.41</ele>
        <time>2020-09-23T13:40:56Z</time>
      </trkpt>
      <trkpt lat="49.6402" lon="4.96797">
        <ele>228.93</ele>
        <time>2020-09-23T13:41:11Z</time>
      </trkpt>
      <trkpt lat="49.64011" lon="4.96814">
        <ele>227.01</ele>
        <time>2020-09-23T13:41:25Z</time>
      </trkpt>
      <trkpt lat="49.64005" lon="4.96829">
        <ele>226.05</ele>
        <time>2020-09-23T13:41:40Z</time>
      </trkpt>
      <trkpt lat="49.63997" lon="4.96842">
        <ele>225.09</ele>
        <time>2020-09-23T13:41:50Z</time>
      </trkpt>
      <trkpt lat="49.63986" lon="4.96854">
        <ele>223.16</ele>
        <time>2020-09-23T13:42:08Z</time>
      </trkpt>
      <trkpt lat="49.63984" lon="4.96857">
        <ele>223.16</ele>
        <time>2020-09-23T13:42:11Z</time>
      </trkpt>
      <trkpt lat="49.6397" lon="4.96875">
        <ele>219.8</ele>
        <time>2020-09-23T13:42:27Z</time>
      </trkpt>
      <trkpt lat="49.63966" lon="4.96883">
        <ele>219.8</ele>
        <time>2020-09-23T13:42:36Z</time>
      </trkpt>
      <trkpt lat="49.6396" lon="4.96892">
        <ele>219.32</ele>
        <time>2020-09-23T13:42:44Z</time>
      </trkpt>
      <trkpt lat="49.6396" lon="4.96895">
        <ele>219.32</ele>
        <time>2020-09-23T13:42:46Z</time>
      </trkpt>
      <trkpt lat="49.63952" lon="4.9691">
        <ele>217.4</ele>
        <time>2020-09-23T13:43:00Z</time>
      </trkpt>
      <trkpt lat="49.63942" lon="4.96929">
        <ele>218.36</ele>
        <time>2020-09-23T13:43:16Z</time>
      </trkpt>
      <trkpt lat="49.63935" lon="4.96941">
        <ele>216.43</ele>
        <time>2020-09-23T13:43:31Z</time>
      </trkpt>
      <trkpt lat="49.63924" lon="4.96962">
        <ele>213.55</ele>
        <time>2020-09-23T13:43:45Z</time>
      </trkpt>
      <trkpt lat="49.6392" lon="4.96969">
        <ele>211.63</ele>
        <time>2020-09-23T13:43:55Z</time>
      </trkpt>
      <trkpt lat="49.63916" lon="4.96981">
        <ele>210.67</ele>
        <time>2020-09-23T13:44:02Z</time>
      </trkpt>
      <trkpt lat="49.63912" lon="4.97003">
        <ele>208.74</ele>
        <time>2020-09-23T13:44:16Z</time>
      </trkpt>
      <trkpt lat="49.63909" lon="4.97007">
        <ele>208.26</ele>
        <time>2020-09-23T13:44:19Z</time>
      </trkpt>
      <trkpt lat="49.63898" lon="4.97025">
        <ele>205.86</ele>
        <time>2020-09-23T13:44:33Z</time>
      </trkpt>
      <trkpt lat="49.6389" lon="4.97042">
        <ele>206.34</ele>
        <time>2020-09-23T13:44:50Z</time>
      </trkpt>
      <trkpt lat="49.63877" lon="4.97061">
        <ele>205.86</ele>
        <time>2020-09-23T13:45:05Z</time>
      </trkpt>
      <trkpt lat="49.63865" lon="4.97079">
        <ele>205.86</ele>
        <time>2020-09-23T13:45:22Z</time>
      </trkpt>
      <trkpt lat="49.63855" lon="4.97093">
        <ele>205.38</ele>
        <time>2020-09-23T13:45:35Z</time>
      </trkpt>
      <trkpt lat="49.63845" lon="4.97115">
        <ele>205.86</ele>
        <time>2020-09-23T13:45:52Z</time>
      </trkpt>
      <trkpt lat="49.63843" lon="4.97117">
        <ele>205.86</ele>
        <time>2020-09-23T13:45:54Z</time>
      </trkpt>
      <trkpt lat="49.63838" lon="4.97126">
        <ele>205.38</ele>
        <time>2020-09-23T13:46:01Z</time>
      </trkpt>
      <trkpt lat="49.6383" lon="4.97145">
        <ele>204.42</ele>
        <time>2020-09-23T13:46:16Z</time>
      </trkpt>
      <trkpt lat="49.63823" lon="4.97163">
        <ele>204.42</ele>
        <time>2020-09-23T13:46:31Z</time>
      </trkpt>
      <trkpt lat="49.63822" lon="4.97166">
        <ele>203.94</ele>
        <time>2020-09-23T13:46:35Z</time>
      </trkpt>
      <trkpt lat="49.63818" lon="4.97172">
        <ele>204.9</ele>
        <time>2020-09-23T13:46:39Z</time>
      </trkpt>
      <trkpt lat="49.63806" lon="4.97198">
        <ele>202.01</ele>
        <time>2020-09-23T13:46:57Z</time>
      </trkpt>
      <trkpt lat="49.63797" lon="4.97214">
        <ele>201.05</ele>
        <time>2020-09-23T13:47:13Z</time>
      </trkpt>
      <trkpt lat="49.63787" lon="4.97231">
        <ele>199.61</ele>
        <time>2020-09-23T13:47:30Z</time>
      </trkpt>
      <trkpt lat="49.63786" lon="4.97234">
        <ele>199.61</ele>
        <time>2020-09-23T13:47:33Z</time>
      </trkpt>
      <trkpt lat="49.63772" lon="4.9726">
        <ele>200.57</ele>
        <time>2020-09-23T13:47:50Z</time>
      </trkpt>
      <trkpt lat="49.63765" lon="4.97278">
        <ele>196.73</ele>
        <time>2020-09-23T13:48:07Z</time>
      </trkpt>
      <trkpt lat="49.63763" lon="4.97281">
        <ele>196.25</ele>
        <time>2020-09-23T13:48:11Z</time>
      </trkpt>
      <trkpt lat="49.63759" lon="4.97285">
        <ele>195.77</ele>
        <time>2020-09-23T13:48:16Z</time>
      </trkpt>
      <trkpt lat="49.6375" lon="4.97296">
        <ele>192.88</ele>
        <time>2020-09-23T13:48:30Z</time>
      </trkpt>
      <trkpt lat="49.63739" lon="4.97315">
        <ele>191.92</ele>
        <time>2020-09-23T13:48:47Z</time>
      </trkpt>
      <trkpt lat="49.63726" lon="4.97331">
        <ele>190.48</ele>
        <time>2020-09-23T13:49:03Z</time>
      </trkpt>
      <trkpt lat="49.6372" lon="4.97341">
        <ele>190</ele>
        <time>2020-09-23T13:49:14Z</time>
      </trkpt>
      <trkpt lat="49.63715" lon="4.97347">
        <ele>189.52</ele>
        <time>2020-09-23T13:49:23Z</time>
      </trkpt>
      <trkpt lat="49.63699" lon="4.97363">
        <ele>187.11</ele>
        <time>2020-09-23T13:49:40Z</time>
      </trkpt>
      <trkpt lat="49.63689" lon="4.97371">
        <ele>185.67</ele>
        <time>2020-09-23T13:49:56Z</time>
      </trkpt>
      <trkpt lat="49.63677" lon="4.97379">
        <ele>186.15</ele>
        <time>2020-09-23T13:50:09Z</time>
      </trkpt>
      <trkpt lat="49.63669" lon="4.97389">
        <ele>187.11</ele>
        <time>2020-09-23T13:50:23Z</time>
      </trkpt>
      <trkpt lat="49.63668" lon="4.97392">
        <ele>187.59</ele>
        <time>2020-09-23T13:50:36Z</time>
      </trkpt>
      <trkpt lat="49.6366" lon="4.97407">
        <ele>190.96</ele>
        <time>2020-09-23T13:50:47Z</time>
      </trkpt>
      <trkpt lat="49.63652" lon="4.97423">
        <ele>191.44</ele>
        <time>2020-09-23T13:51:02Z</time>
      </trkpt>
      <trkpt lat="49.63644" lon="4.97441">
        <ele>190</ele>
        <time>2020-09-23T13:51:16Z</time>
      </trkpt>
      <trkpt lat="49.63642" lon="4.97464">
        <ele>189.04</ele>
        <time>2020-09-23T13:51:32Z</time>
      </trkpt>
      <trkpt lat="49.63639" lon="4.97487">
        <ele>184.23</ele>
        <time>2020-09-23T13:51:50Z</time>
      </trkpt>
      <trkpt lat="49.63641" lon="4.97519">
        <ele>180.38</ele>
        <time>2020-09-23T13:52:06Z</time>
      </trkpt>
      <trkpt lat="49.6364" lon="4.97524">
        <ele>179.42</ele>
        <time>2020-09-23T13:52:08Z</time>
      </trkpt>
      <trkpt lat="49.6364" lon="4.97529">
        <ele>179.42</ele>
        <time>2020-09-23T13:52:11Z</time>
      </trkpt>
      <trkpt lat="49.63641" lon="4.97548">
        <ele>177.5</ele>
        <time>2020-09-23T13:52:23Z</time>
      </trkpt>
      <trkpt lat="49.63644" lon="4.97568">
        <ele>174.62</ele>
        <time>2020-09-23T13:52:38Z</time>
      </trkpt>
      <trkpt lat="49.63646" lon="4.97578">
        <ele>174.14</ele>
        <time>2020-09-23T13:52:43Z</time>
      </trkpt>
      <trkpt lat="49.63646" lon="4.97601">
        <ele>174.62</ele>
        <time>2020-09-23T13:52:57Z</time>
      </trkpt>
      <trkpt lat="49.63642" lon="4.97621">
        <ele>176.54</ele>
        <time>2020-09-23T13:53:10Z</time>
      </trkpt>
      <trkpt lat="49.6364" lon="4.97628">
        <ele>177.5</ele>
        <time>2020-09-23T13:53:13Z</time>
      </trkpt>
      <trkpt lat="49.63636" lon="4.97636">
        <ele>177.02</ele>
        <time>2020-09-23T13:53:18Z</time>
      </trkpt>
      <trkpt lat="49.63627" lon="4.97648">
        <ele>177.02</ele>
        <time>2020-09-23T13:53:33Z</time>
      </trkpt>
      <trkpt lat="49.63613" lon="4.97658">
        <ele>171.73</ele>
        <time>2020-09-23T13:53:51Z</time>
      </trkpt>
      <trkpt lat="49.63608" lon="4.97661">
        <ele>171.25</ele>
        <time>2020-09-23T13:54:06Z</time>
      </trkpt>
      <trkpt lat="49.63595" lon="4.97673">
        <ele>173.66</ele>
        <time>2020-09-23T13:54:21Z</time>
      </trkpt>
      <trkpt lat="49.63582" lon="4.97688">
        <ele>172.69</ele>
        <time>2020-09-23T13:54:37Z</time>
      </trkpt>
      <trkpt lat="49.63576" lon="4.97699">
        <ele>172.69</ele>
        <time>2020-09-23T13:54:48Z</time>
      </trkpt>
      <trkpt lat="49.63566" lon="4.97718">
        <ele>172.21</ele>
        <time>2020-09-23T13:55:04Z</time>
      </trkpt>
      <trkpt lat="49.63559" lon="4.9773">
        <ele>171.73</ele>
        <time>2020-09-23T13:55:18Z</time>
      </trkpt>
      <trkpt lat="49.63551" lon="4.97742">
        <ele>168.37</ele>
        <time>2020-09-23T13:55:33Z</time>
      </trkpt>
      <trkpt lat="49.63545" lon="4.97755">
        <ele>166.93</ele>
        <time>2020-09-23T13:55:43Z</time>
      </trkpt>
      <trkpt lat="49.63536" lon="4.97775">
        <ele>166.45</ele>
        <time>2020-09-23T13:55:59Z</time>
      </trkpt>
      <trkpt lat="49.63528" lon="4.97791">
        <ele>168.37</ele>
        <time>2020-09-23T13:56:16Z</time>
      </trkpt>
      <trkpt lat="49.63524" lon="4.97796">
        <ele>169.33</ele>
        <time>2020-09-23T13:56:21Z</time>
      </trkpt>
      <trkpt lat="49.63513" lon="4.97814">
        <ele>170.29</ele>
        <time>2020-09-23T13:56:37Z</time>
      </trkpt>
      <trkpt lat="49.635" lon="4.97826">
        <ele>173.17</ele>
        <time>2020-09-23T13:56:52Z</time>
      </trkpt>
      <trkpt lat="49.63486" lon="4.97834">
        <ele>173.17</ele>
        <time>2020-09-23T13:57:06Z</time>
      </trkpt>
      <trkpt lat="49.63476" lon="4.97852">
        <ele>174.62</ele>
        <time>2020-09-23T13:57:20Z</time>
      </trkpt>
      <trkpt lat="49.63466" lon="4.97869">
        <ele>177.5</ele>
        <time>2020-09-23T13:57:36Z</time>
      </trkpt>
      <trkpt lat="49.63454" lon="4.97889">
        <ele>179.42</ele>
        <time>2020-09-23T13:57:53Z</time>
      </trkpt>
      <trkpt lat="49.63453" lon="4.97894">
        <ele>178.94</ele>
        <time>2020-09-23T13:57:56Z</time>
      </trkpt>
      <trkpt lat="49.6344" lon="4.979">
        <ele>177.98</ele>
        <time>2020-09-23T13:58:07Z</time>
      </trkpt>
      <trkpt lat="49.63424" lon="4.97904">
        <ele>178.94</ele>
        <time>2020-09-23T13:58:21Z</time>
      </trkpt>
      <trkpt lat="49.63412" lon="4.97916">
        <ele>179.42</ele>
        <time>2020-09-23T13:58:36Z</time>
      </trkpt>
      <trkpt lat="49.63406" lon="4.97923">
        <ele>178.94</ele>
        <time>2020-09-23T13:58:51Z</time>
      </trkpt>
      <trkpt lat="49.63392" lon="4.97929">
        <ele>180.38</ele>
        <time>2020-09-23T13:59:05Z</time>
      </trkpt>
      <trkpt lat="49.63387" lon="4.97938">
        <ele>179.9</ele>
        <time>2020-09-23T13:59:18Z</time>
      </trkpt>
      <trkpt lat="49.63387" lon="4.97945">
        <ele>178.94</ele>
        <time>2020-09-23T13:59:26Z</time>
      </trkpt>
      <trkpt lat="49.6339" lon="4.97952">
        <ele>177.98</ele>
        <time>2020-09-23T13:59:31Z</time>
      </trkpt>
      <trkpt lat="49.63396" lon="4.97961">
        <ele>176.54</ele>
        <time>2020-09-23T13:59:40Z</time>
      </trkpt>
      <trkpt lat="49.63401" lon="4.97983">
        <ele>176.06</ele>
        <time>2020-09-23T13:59:55Z</time>
      </trkpt>
      <trkpt lat="49.63409" lon="4.98004">
        <ele>175.58</ele>
        <time>2020-09-23T14:00:09Z</time>
      </trkpt>
      <trkpt lat="49.63415" lon="4.98026">
        <ele>175.1</ele>
        <time>2020-09-23T14:00:25Z</time>
      </trkpt>
      <trkpt lat="49.63426" lon="4.98044">
        <ele>175.58</ele>
        <time>2020-09-23T14:00:41Z</time>
      </trkpt>
      <trkpt lat="49.63438" lon="4.98053">
        <ele>174.14</ele>
        <time>2020-09-23T14:00:56Z</time>
      </trkpt>
      <trkpt lat="49.63441" lon="4.98055">
        <ele>174.14</ele>
        <time>2020-09-23T14:01:08Z</time>
      </trkpt>
      <trkpt lat="49.63443" lon="4.98059">
        <ele>177.02</ele>
        <time>2020-09-23T14:01:23Z</time>
      </trkpt>
      <trkpt lat="49.63444" lon="4.98058">
        <ele>178.94</ele>
        <time>2020-09-23T14:01:32Z</time>
      </trkpt>
    </trkseg>
  </trk>
</gpx>